Observation data for Lesley on 06/15/2019      Previous  Date       Current Mesonet Observations  Soil Data  Daily Summary Page  Observations in Plain Language
KLE1 150500Z 19022KT 29/18 A2972 RMK A01 T02870177  RH  051%=      5-min Rain = 0
KLE1 150501Z 19025G30KT 29/18 A2972 RMK A01 T02870177  RH  052%=      5-min Rain = 0
KLE1 150502Z 19025KT 29/18 A2972 RMK A01 T02870177  RH  051%=      5-min Rain = 0
KLE1 150503Z 19022G28KT 29/18 A2972 RMK A01 T02880178  RH  051%=      5-min Rain = 0
KLE1 150504Z 19024KT 29/18 A2972 RMK A01 T02870177  RH  051%=      5-min Rain = 0
KLE1 150505Z 19024KT 29/18 A2972 RMK A01 T02870177  RH  052%=      5-min Rain = 0
KLE1 150506Z 19024G31KT 29/18 A2972 RMK A01 T02870177  RH  052%=      5-min Rain = 0
KLE1 150507Z 19023G28KT 29/18 A2972 RMK A01 T02870178  RH  052%=      5-min Rain = 0
KLE1 150508Z 19023KT 29/18 A2972 RMK A01 T02860177  RH  052%=      5-min Rain = 0
KLE1 150509Z 19023KT 29/18 A2972 RMK A01 T02860177  RH  052%=      5-min Rain = 0
KLE1 150510Z 19023G28KT 29/18 A2972 RMK A01 T02850178  RH  052%=      5-min Rain = 0
KLE1 150511Z 19020KT 28/18 A2972 RMK A01 T02840178  RH  052%=      5-min Rain = 0
KLE1 150512Z 19025G32KT 28/18 A2972 RMK A01 T02830178  RH  053%=      5-min Rain = 0
KLE1 150513Z 18023G30KT 28/18 A2972 RMK A01 T02840177  RH  052%=      5-min Rain = 0
KLE1 150514Z 19021KT 28/18 A2972 RMK A01 T02840177  RH  052%=      5-min Rain = 0
KLE1 150515Z 19021KT 28/18 A2972 RMK A01 T02840178  RH  052%=      5-min Rain = 0
KLE1 150516Z 19022G27KT 28/18 A2972 RMK A01 T02840178  RH  053%=      5-min Rain = 0
KLE1 150517Z 19024KT 28/18 A2972 RMK A01 T02830178  RH  053%=      5-min Rain = 0
KLE1 150518Z 18022KT 28/18 A2972 RMK A01 T02830177  RH  053%=      5-min Rain = 0
KLE1 150519Z 19023KT 28/18 A2972 RMK A01 T02830177  RH  053%=      5-min Rain = 0
KLE1 150520Z 19026G32KT 28/18 A2972 RMK A01 T02830177  RH  052%=      5-min Rain = 0
KLE1 150521Z 19023G29KT 28/18 A2972 RMK A01 T02840177  RH  052%=      5-min Rain = 0
KLE1 150522Z 19024G29KT 28/18 A2972 RMK A01 T02840177  RH  052%=      5-min Rain = 0
KLE1 150523Z 19026G31KT 28/18 A2972 RMK A01 T02840177  RH  052%=      5-min Rain = 0
KLE1 150524Z 19027KT 28/18 A2972 RMK A01 T02840177  RH  052%=      5-min Rain = 0
KLE1 150525Z 19023KT 28/18 A2972 RMK A01 T02840178  RH  052%=      5-min Rain = 0
KLE1 150526Z 19024KT 28/18 A2972 RMK A01 T02830177  RH  053%=      5-min Rain = 0
KLE1 150527Z 19023KT 28/18 A2972 RMK A01 T02820178  RH  053%=      5-min Rain = 0
KLE1 150528Z 19024KT 28/18 A2972 RMK A01 T02820178  RH  053%=      5-min Rain = 0
KLE1 150529Z 19028G34KT 28/18 A2972 RMK A01 T02820177  RH  053%=      5-min Rain = 0
KLE1 150530Z 19022G27KT 28/18 A2972 RMK A01 T02830178  RH  053%=      5-min Rain = 0
KLE1 150531Z 19023G29KT 28/18 A2972 RMK A01 T02810178  RH  054%=      5-min Rain = 0
KLE1 150532Z 19021G28KT 28/18 A2972 RMK A01 T02800177  RH  054%=      5-min Rain = 0
KLE1 150533Z 19022G28KT 28/18 A2972 RMK A01 T02800178  RH  054%=      5-min Rain = 0
KLE1 150534Z 19022KT 28/18 A2972 RMK A01 T02790178  RH  054%=      5-min Rain = 0
KLE1 150535Z 19025KT 28/18 A2972 RMK A01 T02780178  RH  054%=      5-min Rain = 0
KLE1 150536Z 18021KT 28/18 A2972 RMK A01 T02790178  RH  054%=      5-min Rain = 0
KLE1 150537Z 18021KT 28/18 A2972 RMK A01 T02790178  RH  054%=      5-min Rain = 0
KLE1 150538Z 18020KT 28/18 A2972 RMK A01 T02780178  RH  054%=      5-min Rain = 0
KLE1 150539Z 19022G28KT 28/18 A2972 RMK A01 T02770178  RH  055%=      5-min Rain = 0
KLE1 150540Z 18023G28KT 28/18 A2972 RMK A01 T02770178  RH  055%=      5-min Rain = 0
KLE1 150541Z 18020G26KT 28/18 A2972 RMK A01 T02770179  RH  055%=      5-min Rain = 0
KLE1 150542Z 18021G26KT 28/18 A2972 RMK A01 T02760178  RH  055%=      5-min Rain = 0
KLE1 150543Z 19019G26KT 28/18 A2972 RMK A01 T02760178  RH  055%=      5-min Rain = 0
KLE1 150544Z 18022G29KT 28/18 A2972 RMK A01 T02750179  RH  056%=      5-min Rain = 0
KLE1 150545Z 18023G30KT 28/18 A2971 RMK A01 T02750178  RH  055%=      5-min Rain = 0
KLE1 150546Z 18021KT 28/18 A2972 RMK A01 T02750178  RH  055%=      5-min Rain = 0
KLE1 150547Z 18021KT 28/18 A2972 RMK A01 T02750178  RH  056%=      5-min Rain = 0
KLE1 150548Z 18023KT 27/18 A2972 RMK A01 T02740178  RH  056%=      5-min Rain = 0
KLE1 150549Z 18020KT 27/18 A2972 RMK A01 T02740178  RH  056%=      5-min Rain = 0
KLE1 150550Z 18022KT 27/18 A2972 RMK A01 T02740178  RH  056%=      5-min Rain = 0
KLE1 150551Z 18023KT 27/18 A2972 RMK A01 T02730178  RH  056%=      5-min Rain = 0
KLE1 150552Z 18021G26KT 27/18 A2972 RMK A01 T02740178  RH  056%=      5-min Rain = 0
KLE1 150553Z 18019KT 27/18 A2972 RMK A01 T02740179  RH  056%=      5-min Rain = 0
KLE1 150554Z 18020KT 27/18 A2972 RMK A01 T02720179  RH  057%=      5-min Rain = 0
KLE1 150555Z 18019G24KT 27/18 A2972 RMK A01 T02710178  RH  057%=      5-min Rain = 0
KLE1 150556Z 18019KT 27/18 A2972 RMK A01 T02700179  RH  057%=      5-min Rain = 0
KLE1 150557Z 18021G26KT 27/18 A2972 RMK A01 T02700179  RH  057%=      5-min Rain = 0
KLE1 150558Z 18021KT 27/18 A2972 RMK A01 T02710178  RH  057%=      5-min Rain = 0
KLE1 150559Z 18021G26KT 27/18 A2972 RMK A01 T02710178  RH  057%=      5-min Rain = 0
KLE1 150600Z 18018KT 27/18 A2972 RMK A01 T02710178  RH  057%=      5-min Rain = 0
KLE1 150601Z 18019KT 27/18 A2972 RMK A01 T02710179  RH  057%=      5-min Rain = 0
KLE1 150602Z 18020KT 27/18 A2972 RMK A01 T02700178  RH  057%=      5-min Rain = 0
KLE1 150603Z 18021G27KT 27/18 A2972 RMK A01 T02700178  RH  057%=      5-min Rain = 0
KLE1 150604Z 18018G23KT 27/18 A2972 RMK A01 T02700178  RH  057%=      5-min Rain = 0
KLE1 150605Z 18020KT 27/18 A2972 RMK A01 T02700178  RH  057%=      5-min Rain = 0
KLE1 150606Z 18019G25KT 27/18 A2972 RMK A01 T02690179  RH  057%=      5-min Rain = 0
KLE1 150607Z 18024KT 27/18 A2972 RMK A01 T02690178  RH  058%=      5-min Rain = 0
KLE1 150608Z 18022KT 27/18 A2972 RMK A01 T02690178  RH  057%=      5-min Rain = 0
KLE1 150609Z 18022G28KT 27/18 A2972 RMK A01 T02700178  RH  057%=      5-min Rain = 0
KLE1 150610Z 18019KT 27/18 A2972 RMK A01 T02710179  RH  057%=      5-min Rain = 0
KLE1 150611Z 18020KT 27/18 A2972 RMK A01 T02690179  RH  057%=      5-min Rain = 0
KLE1 150612Z 18019G24KT 27/18 A2972 RMK A01 T02690178  RH  058%=      5-min Rain = 0
KLE1 150613Z 18021G26KT 27/18 A2972 RMK A01 T02690178  RH  058%=      5-min Rain = 0
KLE1 150614Z 18022KT 27/18 A2972 RMK A01 T02690178  RH  058%=      5-min Rain = 0
KLE1 150615Z 18019KT 27/18 A2972 RMK A01 T02690178  RH  058%=      5-min Rain = 0
KLE1 150616Z 18021KT 27/18 A2972 RMK A01 T02680179  RH  058%=      5-min Rain = 0
KLE1 150617Z 18019KT 27/18 A2972 RMK A01 T02680179  RH  058%=      5-min Rain = 0
KLE1 150618Z 18020KT 27/18 A2972 RMK A01 T02670179  RH  058%=      5-min Rain = 0
KLE1 150619Z 18017KT 27/18 A2972 RMK A01 T02670179  RH  059%=      5-min Rain = 0
KLE1 150620Z 18018G24KT 27/18 A2972 RMK A01 T02650179  RH  059%=      5-min Rain = 0
KLE1 150621Z 18019KT 26/18 A2972 RMK A01 T02640179  RH  059%=      5-min Rain = 0
KLE1 150622Z 18019G24KT 26/18 A2973 RMK A01 T02640178  RH  059%=      5-min Rain = 0
KLE1 150623Z 18016KT 27/18 A2973 RMK A01 T02650179  RH  059%=      5-min Rain = 0
KLE1 150624Z 18018KT 26/18 A2973 RMK A01 T02640179  RH  059%=      5-min Rain = 0
KLE1 150625Z 18018G24KT 26/18 A2973 RMK A01 T02640179  RH  060%=      5-min Rain = 0
KLE1 150626Z 17016KT 26/18 A2973 RMK A01 T02640179  RH  060%=      5-min Rain = 0
KLE1 150627Z 18018G24KT 26/18 A2973 RMK A01 T02630179  RH  060%=      5-min Rain = 0
KLE1 150628Z 18017G22KT 26/18 A2973 RMK A01 T02630179  RH  060%=      5-min Rain = 0
KLE1 150629Z 17017G22KT 26/18 A2973 RMK A01 T02630179  RH  060%=      5-min Rain = 0
KLE1 150630Z 17018KT 26/18 A2973 RMK A01 T02630179  RH  060%=      5-min Rain = 0
KLE1 150631Z 17017KT 26/18 A2973 RMK A01 T02620179  RH  060%=      5-min Rain = 0
KLE1 150632Z 17016KT 26/18 A2973 RMK A01 T02620180  RH  061%=      5-min Rain = 0
KLE1 150633Z 18018KT 26/18 A2973 RMK A01 T02610179  RH  061%=      5-min Rain = 0
KLE1 150634Z 17017KT 26/18 A2973 RMK A01 T02610179  RH  061%=      5-min Rain = 0
KLE1 150635Z 18019KT 26/18 A2973 RMK A01 T02620179  RH  060%=      5-min Rain = 0
KLE1 150636Z 18018KT 26/18 A2973 RMK A01 T02610179  RH  060%=      5-min Rain = 0
KLE1 150637Z 17019KT 26/18 A2973 RMK A01 T02610179  RH  061%=      5-min Rain = 0
KLE1 150638Z 17015G20KT 26/18 A2973 RMK A01 T02610180  RH  061%=      5-min Rain = 0
KLE1 150639Z 18016KT 26/18 A2973 RMK A01 T02600180  RH  061%=      5-min Rain = 0
KLE1 150640Z 18019KT 26/18 A2973 RMK A01 T02590180  RH  062%=      5-min Rain = 0
KLE1 150641Z 18021KT 26/18 A2973 RMK A01 T02590179  RH  061%=      5-min Rain = 0
KLE1 150642Z 17017KT 26/18 A2973 RMK A01 T02600179  RH  061%=      5-min Rain = 0
KLE1 150643Z 18016KT 26/18 A2974 RMK A01 T02600180  RH  061%=      5-min Rain = 0
KLE1 150644Z 18017KT 26/18 A2974 RMK A01 T02590180  RH  061%=      5-min Rain = 0
KLE1 150645Z 18017KT 26/18 A2974 RMK A01 T02580180  RH  062%=      5-min Rain = 0
KLE1 150646Z 18017KT 26/18 A2974 RMK A01 T02580179  RH  062%=      5-min Rain = 0
KLE1 150647Z 18014KT 26/18 A2974 RMK A01 T02580180  RH  062%=      5-min Rain = 0
KLE1 150648Z 18015KT 26/18 A2974 RMK A01 T02570180  RH  062%=      5-min Rain = 0
KLE1 150649Z 18016G21KT 26/18 A2974 RMK A01 T02570179  RH  062%=      5-min Rain = 0
KLE1 150650Z 18017KT 26/18 A2974 RMK A01 T02570179  RH  062%=      5-min Rain = 0
KLE1 150651Z 18014KT 26/18 A2974 RMK A01 T02580179  RH  062%=      5-min Rain = 0
KLE1 150652Z 18012KT 26/18 A2975 RMK A01 T02570179  RH  062%=      5-min Rain = 0
KLE1 150653Z 18016KT 26/18 A2974 RMK A01 T02560179  RH  062%=      5-min Rain = 0
KLE1 150654Z 18014KT 26/18 A2974 RMK A01 T02560178  RH  062%=      5-min Rain = 0
KLE1 150655Z 18015KT 26/18 A2974 RMK A01 T02560179  RH  062%=      5-min Rain = 0
KLE1 150656Z 18012KT 26/18 A2975 RMK A01 T02560179  RH  062%=      5-min Rain = 0
KLE1 150657Z 18012KT 26/18 A2975 RMK A01 T02550179  RH  063%=      5-min Rain = 0
KLE1 150658Z 18012KT 26/18 A2975 RMK A01 T02550179  RH  063%=      5-min Rain = 0
KLE1 150659Z 18012KT 26/18 A2975 RMK A01 T02550179  RH  063%=      5-min Rain = 0
KLE1 150700Z 18012KT 26/18 A2975 RMK A01 T02550179  RH  063%=      5-min Rain = 0
KLE1 150701Z 17009KT 25/18 A2975 RMK A01 T02540179  RH  063%=      5-min Rain = 0
KLE1 150702Z 18007KT 25/18 A2975 RMK A01 T02540179  RH  063%=      5-min Rain = 0
KLE1 150703Z 17006KT 25/18 A2975 RMK A01 T02530179  RH  063%=      5-min Rain = 0
KLE1 150704Z 18009KT 25/18 A2975 RMK A01 T02520179  RH  064%=      5-min Rain = 0
KLE1 150705Z 17008KT 25/18 A2975 RMK A01 T02520179  RH  064%=      5-min Rain = 0
KLE1 150706Z 17009KT 25/18 A2975 RMK A01 T02520178  RH  064%=      5-min Rain = 0
KLE1 150707Z 17006KT 25/18 A2975 RMK A01 T02520178  RH  064%=      5-min Rain = 0
KLE1 150708Z 18007KT 25/18 A2975 RMK A01 T02520179  RH  064%=      5-min Rain = 0
KLE1 150709Z 18006KT 25/18 A2975 RMK A01 T02510179  RH  064%=      5-min Rain = 0
KLE1 150710Z 16004KT 25/18 A2975 RMK A01 T02500179  RH  064%=      5-min Rain = 0
KLE1 150711Z 15002KT 25/18 A2975 RMK A01 T02490179  RH  065%=      5-min Rain = 0
KLE1 150712Z 17004KT 25/18 A2976 RMK A01 T02490178  RH  065%=      5-min Rain = 0
KLE1 150713Z 19003KT 25/18 A2976 RMK A01 T02490178  RH  065%=      5-min Rain = 0
KLE1 150714Z 20003KT 25/18 A2976 RMK A01 T02490178  RH  065%=      5-min Rain = 0
KLE1 150715Z 19006KT 25/18 A2976 RMK A01 T02480179  RH  065%=      5-min Rain = 0
KLE1 150716Z 19003KT 25/18 A2976 RMK A01 T02480178  RH  065%=      5-min Rain = 0
KLE1 150717Z 16003KT 25/18 A2976 RMK A01 T02470178  RH  065%=      5-min Rain = 0
KLE1 150718Z 17001KT 25/18 A2976 RMK A01 T02470178  RH  066%=      5-min Rain = 0
KLE1 150719Z 17003KT 25/18 A2976 RMK A01 T02460178  RH  066%=      5-min Rain = 0
KLE1 150720Z 16003KT 25/18 A2975 RMK A01 T02460178  RH  066%=      5-min Rain = 0
KLE1 150721Z 14003KT 25/18 A2975 RMK A01 T02460178  RH  066%=      5-min Rain = 0
KLE1 150722Z 10003KT 25/18 A2975 RMK A01 T02450178  RH  066%=      5-min Rain = 0
KLE1 150723Z 12005KT 25/18 A2975 RMK A01 T02450178  RH  066%=      5-min Rain = 0
KLE1 150724Z 11003KT 24/18 A2975 RMK A01 T02440177  RH  066%=      5-min Rain = 0
KLE1 150725Z 11005KT 25/18 A2976 RMK A01 T02450178  RH  066%=      5-min Rain = 0
KLE1 150726Z 13005KT 25/18 A2975 RMK A01 T02460177  RH  065%=      5-min Rain = 0
KLE1 150727Z 08004KT 25/18 A2975 RMK A01 T02480178  RH  065%=      5-min Rain = 0
KLE1 150728Z 07003KT 25/18 A2975 RMK A01 T02490178  RH  065%=      5-min Rain = 0
KLE1 150729Z 05002KT 25/18 A2976 RMK A01 T02490178  RH  065%=      5-min Rain = 0
KLE1 150730Z 05003KT 25/18 A2976 RMK A01 T02490178  RH  065%=      5-min Rain = 0
KLE1 150731Z 08003KT 25/18 A2976 RMK A01 T02490177  RH  065%=      5-min Rain = 0
KLE1 150732Z 08004KT 25/18 A2975 RMK A01 T02490178  RH  065%=      5-min Rain = 0
KLE1 150733Z 10004KT 25/18 A2975 RMK A01 T02470178  RH  065%=      5-min Rain = 0
KLE1 150734Z 09004KT 24/18 A2975 RMK A01 T02440177  RH  066%=      5-min Rain = 0
KLE1 150735Z 12005KT 24/18 A2975 RMK A01 T02430178  RH  067%=      5-min Rain = 0
KLE1 150736Z 12004KT 24/18 A2975 RMK A01 T02420178  RH  067%=      5-min Rain = 0
KLE1 150737Z 11006KT 24/18 A2975 RMK A01 T02420178  RH  067%=      5-min Rain = 0
KLE1 150738Z 11004KT 24/18 A2975 RMK A01 T02420178  RH  068%=      5-min Rain = 0
KLE1 150739Z 12005KT 24/18 A2975 RMK A01 T02420178  RH  068%=      5-min Rain = 0
KLE1 150740Z 11005KT 24/18 A2975 RMK A01 T02420177  RH  067%=      5-min Rain = 0
KLE1 150741Z 11005KT 24/18 A2975 RMK A01 T02430179  RH  068%=      5-min Rain = 0
KLE1 150742Z 12006KT 24/18 A2975 RMK A01 T02410179  RH  068%=      5-min Rain = 0
KLE1 150743Z 11005KT 24/18 A2975 RMK A01 T02410177  RH  068%=      5-min Rain = 0
KLE1 150744Z 11005KT 24/18 A2975 RMK A01 T02420178  RH  068%=      5-min Rain = 0
KLE1 150745Z 12005KT 24/18 A2975 RMK A01 T02420177  RH  067%=      5-min Rain = 0
KLE1 150746Z 12007KT 24/18 A2975 RMK A01 T02410178  RH  068%=      5-min Rain = 0
KLE1 150747Z 13005KT 24/18 A2975 RMK A01 T02410177  RH  067%=      5-min Rain = 0
KLE1 150748Z 13005KT 24/18 A2975 RMK A01 T02420177  RH  067%=      5-min Rain = 0
KLE1 150749Z 13006KT 24/18 A2975 RMK A01 T02420178  RH  067%=      5-min Rain = 0
KLE1 150750Z 14007KT 24/18 A2975 RMK A01 T02410178  RH  068%=      5-min Rain = 0
KLE1 150751Z 15007KT 24/18 A2975 RMK A01 T02410178  RH  068%=      5-min Rain = 0
KLE1 150752Z 14007KT 24/18 A2975 RMK A01 T02400178  RH  068%=      5-min Rain = 0
KLE1 150753Z 15009KT 24/18 A2975 RMK A01 T02390178  RH  069%=      5-min Rain = 0
KLE1 150754Z 15009KT 24/18 A2975 RMK A01 T02380177  RH  069%=      5-min Rain = 0
KLE1 150755Z 14009KT 24/18 A2974 RMK A01 T02390178  RH  069%=      5-min Rain = 0
KLE1 150756Z 15010KT 24/18 A2974 RMK A01 T02390179  RH  069%=      5-min Rain = 0
KLE1 150757Z 16013KT 24/18 A2974 RMK A01 T02390178  RH  069%=      5-min Rain = 0
KLE1 150758Z 15010KT 24/18 A2974 RMK A01 T02410178  RH  068%=      5-min Rain = 0
KLE1 150759Z 15011KT 24/18 A2974 RMK A01 T02420179  RH  068%=      5-min Rain = 0
KLE1 150800Z 16011KT 24/18 A2974 RMK A01 T02410179  RH  069%=      5-min Rain = 0
KLE1 150801Z 16010KT 24/18 A2974 RMK A01 T02390178  RH  069%=      5-min Rain = 0
KLE1 150802Z 16011KT 24/18 A2974 RMK A01 T02390178  RH  069%=      5-min Rain = 0
KLE1 150803Z 16010KT 24/18 A2974 RMK A01 T02390178  RH  069%=      5-min Rain = 0
KLE1 150804Z 16009KT 24/18 A2974 RMK A01 T02390178  RH  069%=      5-min Rain = 0
KLE1 150805Z 16009KT 24/18 A2974 RMK A01 T02380178  RH  069%=      5-min Rain = 0
KLE1 150806Z 16009KT 24/18 A2974 RMK A01 T02360178  RH  070%=      5-min Rain = 0
KLE1 150807Z 16008KT 24/18 A2974 RMK A01 T02360178  RH  070%=      5-min Rain = 0
KLE1 150808Z 16008KT 24/18 A2974 RMK A01 T02350178  RH  070%=      5-min Rain = 0
KLE1 150809Z 15009KT 23/18 A2974 RMK A01 T02340178  RH  071%=      5-min Rain = 0
KLE1 150810Z 16009KT 23/18 A2974 RMK A01 T02340178  RH  071%=      5-min Rain = 0
KLE1 150811Z 15009KT 23/18 A2974 RMK A01 T02340178  RH  071%=      5-min Rain = 0
KLE1 150812Z 16008KT 24/18 A2974 RMK A01 T02350178  RH  071%=      5-min Rain = 0
KLE1 150813Z 16008KT 24/18 A2974 RMK A01 T02350178  RH  070%=      5-min Rain = 0
KLE1 150814Z 16007KT 24/18 A2974 RMK A01 T02350178  RH  070%=      5-min Rain = 0
KLE1 150815Z 16006KT 23/18 A2974 RMK A01 T02340178  RH  071%=      5-min Rain = 0
KLE1 150816Z 16006KT 23/18 A2974 RMK A01 T02320178  RH  072%=      5-min Rain = 0
KLE1 150817Z 17006KT 23/18 A2974 RMK A01 T02310178  RH  072%=      5-min Rain = 0
KLE1 150818Z 16006KT 23/18 A2974 RMK A01 T02300178  RH  073%=      5-min Rain = 0
KLE1 150819Z 16007KT 23/18 A2974 RMK A01 T02290178  RH  073%=      5-min Rain = 0
KLE1 150820Z 16007KT 23/18 A2974 RMK A01 T02280178  RH  073%=      5-min Rain = 0
KLE1 150821Z 16006KT 23/18 A2974 RMK A01 T02280178  RH  073%=      5-min Rain = 0
KLE1 150822Z 15005KT 23/18 A2974 RMK A01 T02280178  RH  073%=      5-min Rain = 0
KLE1 150823Z 16005KT 23/18 A2974 RMK A01 T02280178  RH  073%=      5-min Rain = 0
KLE1 150824Z 16005KT 23/18 A2974 RMK A01 T02280178  RH  073%=      5-min Rain = 0
KLE1 150825Z 16005KT 23/18 A2974 RMK A01 T02280178  RH  073%=      5-min Rain = 0
KLE1 150826Z 16005KT 23/18 A2974 RMK A01 T02290177  RH  073%=      5-min Rain = 0
KLE1 150827Z 16005KT 23/18 A2974 RMK A01 T02290177  RH  073%=      5-min Rain = 0
KLE1 150828Z 16004KT 23/18 A2974 RMK A01 T02290177  RH  073%=      5-min Rain = 0
KLE1 150829Z 16004KT 23/18 A2974 RMK A01 T02280177  RH  073%=      5-min Rain = 0
KLE1 150830Z 16004KT 23/18 A2974 RMK A01 T02280177  RH  073%=      5-min Rain = 0
KLE1 150831Z 16004KT 23/18 A2974 RMK A01 T02280177  RH  073%=      5-min Rain = 0
KLE1 150832Z 17004KT 23/18 A2974 RMK A01 T02290177  RH  073%=      5-min Rain = 0
KLE1 150833Z 16004KT 23/18 A2974 RMK A01 T02290177  RH  073%=      5-min Rain = 0
KLE1 150834Z 16004KT 23/18 A2974 RMK A01 T02290177  RH  073%=      5-min Rain = 0
KLE1 150835Z 16005KT 23/18 A2974 RMK A01 T02290177  RH  072%=      5-min Rain = 0
KLE1 150836Z 15005KT 23/18 A2973 RMK A01 T02300177  RH  072%=      5-min Rain = 0
KLE1 150837Z 16004KT 23/18 A2973 RMK A01 T02310177  RH  072%=      5-min Rain = 0
KLE1 150838Z 17004KT 23/18 A2973 RMK A01 T02310177  RH  072%=      5-min Rain = 0
KLE1 150839Z 16003KT 23/18 A2973 RMK A01 T02310177  RH  072%=      5-min Rain = 0
KLE1 150840Z 17003KT 23/18 A2973 RMK A01 T02320177  RH  071%=      5-min Rain = 0
KLE1 150841Z 16004KT 23/18 A2973 RMK A01 T02330177  RH  071%=      5-min Rain = 0
KLE1 150842Z 16004KT 23/18 A2973 RMK A01 T02340178  RH  071%=      5-min Rain = 0
KLE1 150843Z 16004KT 23/18 A2973 RMK A01 T02330177  RH  071%=      5-min Rain = 0
KLE1 150844Z 15004KT 23/18 A2973 RMK A01 T02330177  RH  071%=      5-min Rain = 0
KLE1 150845Z 14004KT 23/18 A2973 RMK A01 T02330177  RH  071%=      5-min Rain = 0
KLE1 150846Z 15003KT 23/18 A2973 RMK A01 T02320177  RH  071%=      5-min Rain = 0
KLE1 150847Z 16003KT 23/18 A2973 RMK A01 T02320177  RH  071%=      5-min Rain = 0
KLE1 150848Z 15003KT 23/18 A2973 RMK A01 T02320177  RH  071%=      5-min Rain = 0
KLE1 150849Z 15004KT 23/18 A2973 RMK A01 T02320177  RH  071%=      5-min Rain = 0
KLE1 150850Z 16004KT 23/18 A2973 RMK A01 T02310177  RH  072%=      5-min Rain = 0
KLE1 150851Z 16004KT 23/18 A2973 RMK A01 T02310177  RH  072%=      5-min Rain = 0
KLE1 150852Z 15003KT 23/18 A2973 RMK A01 T02310177  RH  072%=      5-min Rain = 0
KLE1 150853Z 17003KT 23/18 A2973 RMK A01 T02310178  RH  072%=      5-min Rain = 0
KLE1 150854Z 15003KT 23/18 A2973 RMK A01 T02320178  RH  072%=      5-min Rain = 0
KLE1 150855Z 16003KT 23/18 A2973 RMK A01 T02320177  RH  071%=      5-min Rain = 0
KLE1 150856Z 14003KT 23/18 A2973 RMK A01 T02330178  RH  071%=      5-min Rain = 0
KLE1 150857Z 14003KT 23/18 A2973 RMK A01 T02330178  RH  071%=      5-min Rain = 0
KLE1 150858Z 15003KT 23/18 A2973 RMK A01 T02330178  RH  071%=      5-min Rain = 0
KLE1 150859Z 19005KT 23/18 A2973 RMK A01 T02330178  RH  071%=      5-min Rain = 0
KLE1 150900Z 20003KT 23/18 A2973 RMK A01 T02340178  RH  071%=      5-min Rain = 0
KLE1 150901Z 22003KT 24/18 A2973 RMK A01 T02360179  RH  070%=      5-min Rain = 0
KLE1 150902Z 22004KT 24/18 A2973 RMK A01 T02360179  RH  070%=      5-min Rain = 0
KLE1 150903Z 20004KT 24/18 A2973 RMK A01 T02360179  RH  070%=      5-min Rain = 0
KLE1 150904Z 19003KT 24/18 A2973 RMK A01 T02360178  RH  070%=      5-min Rain = 0
KLE1 150905Z 21005KT 24/18 A2973 RMK A01 T02360178  RH  070%=      5-min Rain = 0
KLE1 150906Z 21005KT 23/18 A2973 RMK A01 T02340178  RH  071%=      5-min Rain = 0
KLE1 150907Z 21004KT 23/18 A2973 RMK A01 T02340178  RH  071%=      5-min Rain = 0
KLE1 150908Z 23005KT 23/18 A2973 RMK A01 T02340178  RH  071%=      5-min Rain = 0
KLE1 150909Z 21004KT 23/18 A2973 RMK A01 T02330178  RH  071%=      5-min Rain = 0
KLE1 150910Z 21006KT 23/18 A2973 RMK A01 T02320178  RH  072%=      5-min Rain = 0
KLE1 150911Z 23005KT 23/18 A2973 RMK A01 T02330178  RH  071%=      5-min Rain = 0
KLE1 150912Z 23005KT 24/18 A2973 RMK A01 T02350179  RH  070%=      5-min Rain = 0
KLE1 150913Z 22007KT 24/18 A2973 RMK A01 T02360178  RH  070%=      5-min Rain = 0
KLE1 150914Z 22006KT 24/18 A2973 RMK A01 T02380178  RH  069%=      5-min Rain = 0
KLE1 150915Z 21008KT 24/18 A2973 RMK A01 T02370178  RH  069%=      5-min Rain = 0
KLE1 150916Z 21006KT 24/18 A2973 RMK A01 T02370178  RH  069%=      5-min Rain = 0
KLE1 150917Z 21007KT 24/18 A2973 RMK A01 T02360178  RH  070%=      5-min Rain = 0
KLE1 150918Z 21007KT 24/18 A2973 RMK A01 T02350178  RH  070%=      5-min Rain = 0
KLE1 150919Z 21009KT 23/18 A2973 RMK A01 T02340178  RH  071%=      5-min Rain = 0
KLE1 150920Z 20008KT 24/18 A2973 RMK A01 T02350178  RH  070%=      5-min Rain = 0
KLE1 150921Z 21008KT 24/18 A2973 RMK A01 T02360177  RH  070%=      5-min Rain = 0
KLE1 150922Z 20006KT 24/18 A2973 RMK A01 T02370178  RH  069%=      5-min Rain = 0
KLE1 150923Z 20009KT 24/18 A2973 RMK A01 T02360177  RH  069%=      5-min Rain = 0
KLE1 150924Z 20008KT 24/18 A2973 RMK A01 T02390178  RH  068%=      5-min Rain = 0
KLE1 150925Z 21007KT 24/18 A2973 RMK A01 T02400178  RH  068%=      5-min Rain = 0
KLE1 150926Z 22009KT 24/18 A2973 RMK A01 T02390177  RH  068%=      5-min Rain = 0
KLE1 150927Z 21007KT 24/18 A2973 RMK A01 T02390177  RH  068%=      5-min Rain = 0
KLE1 150928Z 23009KT 24/18 A2973 RMK A01 T02380177  RH  069%=      5-min Rain = 0
KLE1 150929Z 21007KT 24/18 A2973 RMK A01 T02390177  RH  068%=      5-min Rain = 0
KLE1 150930Z 21006KT 24/18 A2973 RMK A01 T02400177  RH  068%=      5-min Rain = 0
KLE1 150931Z 21006KT 24/18 A2973 RMK A01 T02400177  RH  068%=      5-min Rain = 0
KLE1 150932Z 21007KT 24/18 A2973 RMK A01 T02380177  RH  068%=      5-min Rain = 0
KLE1 150933Z 20006KT 24/18 A2973 RMK A01 T02380176  RH  068%=      5-min Rain = 0
KLE1 150934Z 21007KT 24/18 A2973 RMK A01 T02360176  RH  069%=      5-min Rain = 0
KLE1 150935Z 21007KT 24/18 A2973 RMK A01 T02350175  RH  069%=      5-min Rain = 0
KLE1 150936Z 20006KT 24/18 A2973 RMK A01 T02360175  RH  069%=      5-min Rain = 0
KLE1 150937Z 20006KT 24/18 A2973 RMK A01 T02370175  RH  068%=      5-min Rain = 0
KLE1 150938Z 21005KT 24/18 A2973 RMK A01 T02370176  RH  068%=      5-min Rain = 0
KLE1 150939Z 20005KT 24/18 A2973 RMK A01 T02360175  RH  069%=      5-min Rain = 0
KLE1 150940Z 20005KT 24/18 A2973 RMK A01 T02350175  RH  069%=      5-min Rain = 0
KLE1 150941Z 20006KT 24/18 A2973 RMK A01 T02350175  RH  069%=      5-min Rain = 0
KLE1 150942Z 20007KT 24/18 A2973 RMK A01 T02350175  RH  069%=      5-min Rain = 0
KLE1 150943Z 19007KT 24/17 A2973 RMK A01 T02350174  RH  068%=      5-min Rain = 0
KLE1 150944Z 19008KT 24/17 A2973 RMK A01 T02380174  RH  068%=      5-min Rain = 0
KLE1 150945Z 21008KT 24/18 A2973 RMK A01 T02380175  RH  068%=      5-min Rain = 0
KLE1 150946Z 20008KT 24/18 A2973 RMK A01 T02370175  RH  068%=      5-min Rain = 0
KLE1 150947Z 21009KT 24/17 A2973 RMK A01 T02370174  RH  068%=      5-min Rain = 0
KLE1 150948Z 20008KT 24/17 A2973 RMK A01 T02370173  RH  067%=      5-min Rain = 0
KLE1 150949Z 19007KT 24/18 A2973 RMK A01 T02400175  RH  067%=      5-min Rain = 0
KLE1 150950Z 19008KT 24/18 A2973 RMK A01 T02400175  RH  067%=      5-min Rain = 0
KLE1 150951Z 19008KT 24/17 A2973 RMK A01 T02380174  RH  067%=      5-min Rain = 0
KLE1 150952Z 19008KT 24/17 A2973 RMK A01 T02370174  RH  068%=      5-min Rain = 0
KLE1 150953Z 18008KT 24/17 A2973 RMK A01 T02360174  RH  068%=      5-min Rain = 0
KLE1 150954Z 19008KT 23/17 A2973 RMK A01 T02340174  RH  069%=      5-min Rain = 0
KLE1 150955Z 19009KT 23/17 A2973 RMK A01 T02340173  RH  069%=      5-min Rain = 0
KLE1 150956Z 20009KT 24/17 A2973 RMK A01 T02350173  RH  068%=      5-min Rain = 0
KLE1 150957Z 20009KT 24/17 A2973 RMK A01 T02350173  RH  068%=      5-min Rain = 0
KLE1 150958Z 20009KT 24/17 A2973 RMK A01 T02360173  RH  068%=      5-min Rain = 0
KLE1 150959Z 21010KT 24/17 A2973 RMK A01 T02370173  RH  067%=      5-min Rain = 0
KLE1 151000Z 20009KT 24/17 A2973 RMK A01 T02380173  RH  067%=      5-min Rain = 0
KLE1 151001Z 20009KT 24/17 A2973 RMK A01 T02380174  RH  067%=      5-min Rain = 0
KLE1 151002Z 20010KT 24/17 A2973 RMK A01 T02360173  RH  068%=      5-min Rain = 0
KLE1 151003Z 20010KT 24/17 A2973 RMK A01 T02360172  RH  067%=      5-min Rain = 0
KLE1 151004Z 20008KT 24/17 A2973 RMK A01 T02380173  RH  067%=      5-min Rain = 0
KLE1 151005Z 20008KT 24/17 A2973 RMK A01 T02380173  RH  067%=      5-min Rain = 0
KLE1 151006Z 20008KT 24/17 A2973 RMK A01 T02360173  RH  068%=      5-min Rain = 0
KLE1 151007Z 20008KT 24/17 A2973 RMK A01 T02350172  RH  068%=      5-min Rain = 0
KLE1 151008Z 20008KT 23/17 A2973 RMK A01 T02340172  RH  068%=      5-min Rain = 0
KLE1 151009Z 19007KT 23/17 A2973 RMK A01 T02330172  RH  068%=      5-min Rain = 0
KLE1 151010Z 20008KT 23/17 A2973 RMK A01 T02330172  RH  068%=      5-min Rain = 0
KLE1 151011Z 20007KT 23/17 A2973 RMK A01 T02330171  RH  068%=      5-min Rain = 0
KLE1 151012Z 21006KT 24/17 A2973 RMK A01 T02350172  RH  068%=      5-min Rain = 0
KLE1 151013Z 21006KT 23/17 A2973 RMK A01 T02340172  RH  068%=      5-min Rain = 0
KLE1 151014Z 21006KT 23/17 A2973 RMK A01 T02320172  RH  069%=      5-min Rain = 0
KLE1 151015Z 21007KT 23/17 A2973 RMK A01 T02310171  RH  069%=      5-min Rain = 0
KLE1 151016Z 22008KT 23/17 A2973 RMK A01 T02310170  RH  069%=      5-min Rain = 0
KLE1 151017Z 22005KT 23/17 A2973 RMK A01 T02340171  RH  068%=      5-min Rain = 0
KLE1 151018Z 22006KT 23/17 A2973 RMK A01 T02340171  RH  068%=      5-min Rain = 0
KLE1 151019Z 22007KT 23/17 A2973 RMK A01 T02320170  RH  068%=      5-min Rain = 0
KLE1 151020Z 21006KT 23/17 A2973 RMK A01 T02310170  RH  068%=      5-min Rain = 0
KLE1 151021Z 22006KT 23/17 A2973 RMK A01 T02310170  RH  069%=      5-min Rain = 0
KLE1 151022Z 23005KT 23/17 A2973 RMK A01 T02300170  RH  069%=      5-min Rain = 0
KLE1 151023Z 23005KT 23/17 A2973 RMK A01 T02300170  RH  069%=      5-min Rain = 0
KLE1 151024Z 23007KT 23/17 A2973 RMK A01 T02300169  RH  069%=      5-min Rain = 0
KLE1 151025Z 23006KT 23/17 A2974 RMK A01 T02310170  RH  068%=      5-min Rain = 0
KLE1 151026Z 22005KT 23/17 A2974 RMK A01 T02310170  RH  068%=      5-min Rain = 0
KLE1 151027Z 23004KT 23/17 A2974 RMK A01 T02310169  RH  068%=      5-min Rain = 0
KLE1 151028Z 23003KT 23/17 A2974 RMK A01 T02300169  RH  069%=      5-min Rain = 0
KLE1 151029Z 27002KT 23/17 A2974 RMK A01 T02290169  RH  069%=      5-min Rain = 0
KLE1 151030Z 28002KT 23/17 A2974 RMK A01 T02270169  RH  070%=      5-min Rain = 0
KLE1 151031Z 31001KT 23/17 A2974 RMK A01 T02260169  RH  070%=      5-min Rain = 0
KLE1 151032Z 28002KT 23/17 A2974 RMK A01 T02260169  RH  070%=      5-min Rain = 0
KLE1 151033Z 28002KT 23/17 A2974 RMK A01 T02270169  RH  070%=      5-min Rain = 0
KLE1 151034Z 26003KT 23/17 A2974 RMK A01 T02280170  RH  069%=      5-min Rain = 0
KLE1 151035Z 24002KT 23/17 A2974 RMK A01 T02300169  RH  069%=      5-min Rain = 0
KLE1 151036Z 24002KT 23/17 A2974 RMK A01 T02310170  RH  068%=      5-min Rain = 0
KLE1 151037Z 25002KT 23/17 A2974 RMK A01 T02310169  RH  068%=      5-min Rain = 0
KLE1 151038Z 23003KT 23/17 A2974 RMK A01 T02310169  RH  068%=      5-min Rain = 0
KLE1 151039Z 22006KT 23/17 A2974 RMK A01 T02330168  RH  067%=      5-min Rain = 0
KLE1 151040Z 22007KT 23/17 A2974 RMK A01 T02330167  RH  067%=      5-min Rain = 0
KLE1 151041Z 23009KT 23/17 A2974 RMK A01 T02330167  RH  066%=      5-min Rain = 0
KLE1 151042Z 23009KT 24/17 A2974 RMK A01 T02350167  RH  065%=      5-min Rain = 0
KLE1 151043Z 23008KT 24/17 A2974 RMK A01 T02380167  RH  064%=      5-min Rain = 0
KLE1 151044Z 22006KT 24/17 A2974 RMK A01 T02390168  RH  064%=      5-min Rain = 0
KLE1 151045Z 23007KT 24/17 A2974 RMK A01 T02380168  RH  065%=      5-min Rain = 0
KLE1 151046Z 22008KT 24/17 A2974 RMK A01 T02360168  RH  066%=      5-min Rain = 0
KLE1 151047Z 22009KT 23/17 A2974 RMK A01 T02340166  RH  066%=      5-min Rain = 0
KLE1 151048Z 22008KT 23/17 A2974 RMK A01 T02340167  RH  066%=      5-min Rain = 0
KLE1 151049Z 21008KT 23/17 A2974 RMK A01 T02330168  RH  067%=      5-min Rain = 0
KLE1 151050Z 21007KT 23/17 A2974 RMK A01 T02310167  RH  067%=      5-min Rain = 0
KLE1 151051Z 21007KT 23/17 A2974 RMK A01 T02310167  RH  067%=      5-min Rain = 0
KLE1 151052Z 20008KT 23/17 A2974 RMK A01 T02310167  RH  067%=      5-min Rain = 0
KLE1 151053Z 21008KT 23/17 A2974 RMK A01 T02310166  RH  067%=      5-min Rain = 0
KLE1 151054Z 20008KT 23/17 A2974 RMK A01 T02310166  RH  067%=      5-min Rain = 0
KLE1 151055Z 20008KT 23/17 A2974 RMK A01 T02310166  RH  067%=      5-min Rain = 0
KLE1 151056Z 20008KT 23/17 A2974 RMK A01 T02320166  RH  067%=      5-min Rain = 0
KLE1 151057Z 20008KT 23/17 A2974 RMK A01 T02320167  RH  067%=      5-min Rain = 0
KLE1 151058Z 20007KT 23/17 A2974 RMK A01 T02300166  RH  067%=      5-min Rain = 0
KLE1 151059Z 20007KT 23/17 A2974 RMK A01 T02300166  RH  067%=      5-min Rain = 0
KLE1 151100Z 20007KT 23/17 A2974 RMK A01 T02300166  RH  067%=      5-min Rain = 0
KLE1 151101Z 19007KT 23/17 A2974 RMK A01 T02300166  RH  067%=      5-min Rain = 0
KLE1 151102Z 19008KT 23/17 A2975 RMK A01 T02300166  RH  067%=      5-min Rain = 0
KLE1 151103Z 19007KT 23/17 A2975 RMK A01 T02290166  RH  067%=      5-min Rain = 0
KLE1 151104Z 19008KT 23/17 A2974 RMK A01 T02300165  RH  067%=      5-min Rain = 0
KLE1 151105Z 19007KT 23/17 A2974 RMK A01 T02310165  RH  066%=      5-min Rain = 0
KLE1 151106Z 18007KT 23/17 A2974 RMK A01 T02310166  RH  067%=      5-min Rain = 0
KLE1 151107Z 19006KT 23/17 A2974 RMK A01 T02300166  RH  067%=      5-min Rain = 0
KLE1 151108Z 19006KT 23/17 A2975 RMK A01 T02290166  RH  067%=      5-min Rain = 0
KLE1 151109Z 19005KT 23/17 A2975 RMK A01 T02290165  RH  067%=      5-min Rain = 0
KLE1 151110Z 20005KT 23/16 A2975 RMK A01 T02290164  RH  067%=      5-min Rain = 0
KLE1 151111Z 20005KT 23/16 A2975 RMK A01 T02300164  RH  066%=      5-min Rain = 0
KLE1 151112Z 20005KT 23/16 A2975 RMK A01 T02310164  RH  066%=      5-min Rain = 0
KLE1 151113Z 20005KT 23/16 A2975 RMK A01 T02330164  RH  065%=      5-min Rain = 0
KLE1 151114Z 20005KT 23/16 A2975 RMK A01 T02330164  RH  065%=      5-min Rain = 0
KLE1 151115Z 18004KT 23/16 A2975 RMK A01 T02340164  RH  065%=      5-min Rain = 0
KLE1 151116Z 19005KT 23/16 A2975 RMK A01 T02340163  RH  064%=      5-min Rain = 0
KLE1 151117Z 18005KT 24/16 A2975 RMK A01 T02350164  RH  064%=      5-min Rain = 0
KLE1 151118Z 18005KT 23/16 A2974 RMK A01 T02340164  RH  065%=      5-min Rain = 0
KLE1 151119Z 19005KT 23/16 A2974 RMK A01 T02330163  RH  065%=      5-min Rain = 0
KLE1 151120Z 19004KT 23/16 A2974 RMK A01 T02320163  RH  065%=      5-min Rain = 0
KLE1 151121Z 19004KT 23/16 A2974 RMK A01 T02320163  RH  065%=      5-min Rain = 0
KLE1 151122Z 18003KT 23/16 A2974 RMK A01 T02320163  RH  065%=      5-min Rain = 0
KLE1 151123Z 17003KT 23/16 A2974 RMK A01 T02330163  RH  065%=      5-min Rain = 0
KLE1 151124Z 17004KT 23/16 A2974 RMK A01 T02340163  RH  064%=      5-min Rain = 0
KLE1 151125Z 17004KT 24/16 A2974 RMK A01 T02350163  RH  064%=      5-min Rain = 0
KLE1 151126Z 17003KT 24/16 A2974 RMK A01 T02350163  RH  064%=      5-min Rain = 0
KLE1 151127Z 16002KT 24/16 A2974 RMK A01 T02350162  RH  064%=      5-min Rain = 0
KLE1 151128Z 17003KT 24/16 A2974 RMK A01 T02360162  RH  063%=      5-min Rain = 0
KLE1 151129Z 17003KT 24/16 A2974 RMK A01 T02360162  RH  063%=      5-min Rain = 0
KLE1 151130Z 16003KT 24/16 A2974 RMK A01 T02360162  RH  063%=      5-min Rain = 0
KLE1 151131Z 17002KT 24/16 A2974 RMK A01 T02370162  RH  063%=      5-min Rain = 0
KLE1 151132Z 17003KT 24/16 A2974 RMK A01 T02360162  RH  063%=      5-min Rain = 0
KLE1 151133Z 17004KT 24/16 A2974 RMK A01 T02360162  RH  063%=      5-min Rain = 0
KLE1 151134Z 16003KT 24/16 A2974 RMK A01 T02360161  RH  063%=      5-min Rain = 0
KLE1 151135Z 15004KT 24/16 A2974 RMK A01 T02360162  RH  063%=      5-min Rain = 0
KLE1 151136Z 16004KT 24/16 A2974 RMK A01 T02360161  RH  063%=      5-min Rain = 0
KLE1 151137Z 15004KT 24/16 A2974 RMK A01 T02360162  RH  063%=      5-min Rain = 0
KLE1 151138Z 14003KT 24/16 A2974 RMK A01 T02370162  RH  063%=      5-min Rain = 0
KLE1 151139Z 13003KT 24/16 A2974 RMK A01 T02360161  RH  063%=      5-min Rain = 0
KLE1 151140Z 13004KT 24/16 A2974 RMK A01 T02360162  RH  063%=      5-min Rain = 0
KLE1 151141Z 16004KT 24/16 A2974 RMK A01 T02350162  RH  063%=      5-min Rain = 0
KLE1 151142Z 13003KT 24/16 A2974 RMK A01 T02350161  RH  063%=      5-min Rain = 0
KLE1 151143Z 10003KT 23/16 A2974 RMK A01 T02340161  RH  063%=      5-min Rain = 0
KLE1 151144Z 13003KT 23/16 A2974 RMK A01 T02340161  RH  063%=      5-min Rain = 0
KLE1 151145Z 13002KT 23/16 A2974 RMK A01 T02340161  RH  063%=      5-min Rain = 0
KLE1 151146Z 11002KT 23/16 A2974 RMK A01 T02340161  RH  063%=      5-min Rain = 0
KLE1 151147Z 07002KT 23/16 A2974 RMK A01 T02340162  RH  064%=      5-min Rain = 0
KLE1 151148Z 28001KT 23/16 A2974 RMK A01 T02320162  RH  065%=      5-min Rain = 0
KLE1 151149Z 27001KT 23/16 A2974 RMK A01 T02310161  RH  065%=      5-min Rain = 0
KLE1 151150Z 30002KT 23/16 A2974 RMK A01 T02320160  RH  064%=      5-min Rain = 0
KLE1 151151Z 03001KT 23/16 A2973 RMK A01 T02340160  RH  063%=      5-min Rain = 0
KLE1 151152Z 24000KT 24/16 A2974 RMK A01 T02360161  RH  063%=      5-min Rain = 0
KLE1 151153Z 26001KT 24/16 A2974 RMK A01 T02360161  RH  063%=      5-min Rain = 0
KLE1 151154Z 29002KT 24/16 A2973 RMK A01 T02360160  RH  062%=      5-min Rain = 0
KLE1 151155Z 26002KT 24/16 A2973 RMK A01 T02370160  RH  062%=      5-min Rain = 0
KLE1 151156Z 29003KT 24/16 A2973 RMK A01 T02380160  RH  062%=      5-min Rain = 0
KLE1 151157Z 00001KT 24/16 A2973 RMK A01 T02390159  RH  061%=      5-min Rain = 0
KLE1 151158Z 24002KT 24/16 A2973 RMK A01 T02410157  RH  059%=      5-min Rain = 0
KLE1 151159Z 25003KT 24/16 A2973 RMK A01 T02430160  RH  060%=      5-min Rain = 0
KLE1 151200Z 22003KT 24/16 A2974 RMK A01 T02430160  RH  060%=      5-min Rain = 0
KLE1 151201Z 21004KT 24/16 A2974 RMK A01 T02430160  RH  060%=      5-min Rain = 0
KLE1 151202Z 25004KT 24/16 A2973 RMK A01 T02420159  RH  060%=      5-min Rain = 0
KLE1 151203Z 25003KT 25/16 A2974 RMK A01 T02450159  RH  058%=      5-min Rain = 0
KLE1 151204Z 26004KT 25/16 A2974 RMK A01 T02470160  RH  058%=      5-min Rain = 0
KLE1 151205Z 25004KT 25/16 A2974 RMK A01 T02470160  RH  058%=      5-min Rain = 0
KLE1 151206Z 26005KT 25/16 A2974 RMK A01 T02460160  RH  059%=      5-min Rain = 0
KLE1 151207Z 25005KT 25/16 A2974 RMK A01 T02450161  RH  059%=      5-min Rain = 0
KLE1 151208Z 26006KT 24/16 A2974 RMK A01 T02430161  RH  060%=      5-min Rain = 0
KLE1 151209Z 26006KT 24/16 A2974 RMK A01 T02400162  RH  062%=      5-min Rain = 0
KLE1 151210Z 26007KT 24/16 A2974 RMK A01 T02370163  RH  063%=      5-min Rain = 0
KLE1 151211Z 26006KT 24/16 A2974 RMK A01 T02350163  RH  064%=      5-min Rain = 0
KLE1 151212Z 26005KT 24/16 A2974 RMK A01 T02350164  RH  064%=      5-min Rain = 0
KLE1 151213Z 26006KT 24/16 A2974 RMK A01 T02350164  RH  065%=      5-min Rain = 0
KLE1 151214Z 26007KT 23/17 A2974 RMK A01 T02340165  RH  065%=      5-min Rain = 0
KLE1 151215Z 26007KT 23/17 A2974 RMK A01 T02320166  RH  066%=      5-min Rain = 0
KLE1 151216Z 26007KT 23/17 A2974 RMK A01 T02310167  RH  067%=      5-min Rain = 0
KLE1 151217Z 27008KT 23/17 A2974 RMK A01 T02300167  RH  067%=      5-min Rain = 0
KLE1 151218Z 27007KT 23/17 A2974 RMK A01 T02310167  RH  067%=      5-min Rain = 0
KLE1 151219Z 27007KT 23/17 A2974 RMK A01 T02310166  RH  067%=      5-min Rain = 0
KLE1 151220Z 27008KT 23/17 A2974 RMK A01 T02320167  RH  067%=      5-min Rain = 0
KLE1 151221Z 26008KT 23/17 A2974 RMK A01 T02330167  RH  066%=      5-min Rain = 0
KLE1 151222Z 26008KT 23/17 A2974 RMK A01 T02340167  RH  066%=      5-min Rain = 0
KLE1 151223Z 26008KT 23/17 A2974 RMK A01 T02340166  RH  066%=      5-min Rain = 0
KLE1 151224Z 26008KT 24/17 A2974 RMK A01 T02350167  RH  065%=      5-min Rain = 0
KLE1 151225Z 25007KT 24/17 A2974 RMK A01 T02370166  RH  064%=      5-min Rain = 0
KLE1 151226Z 25008KT 24/17 A2974 RMK A01 T02380165  RH  064%=      5-min Rain = 0
KLE1 151227Z 25008KT 24/16 A2974 RMK A01 T02400164  RH  063%=      5-min Rain = 0
KLE1 151228Z 25009KT 24/17 A2974 RMK A01 T02420165  RH  062%=      5-min Rain = 0
KLE1 151229Z 25009KT 24/17 A2974 RMK A01 T02430166  RH  062%=      5-min Rain = 0
KLE1 151230Z 25008KT 24/17 A2974 RMK A01 T02430166  RH  062%=      5-min Rain = 0
KLE1 151231Z 25009KT 24/17 A2974 RMK A01 T02430166  RH  062%=      5-min Rain = 0
KLE1 151232Z 24008KT 24/17 A2974 RMK A01 T02430168  RH  063%=      5-min Rain = 0
KLE1 151233Z 24008KT 24/17 A2974 RMK A01 T02420168  RH  063%=      5-min Rain = 0
KLE1 151234Z 24009KT 24/17 A2974 RMK A01 T02420167  RH  063%=      5-min Rain = 0
KLE1 151235Z 24010KT 24/17 A2974 RMK A01 T02430165  RH  062%=      5-min Rain = 0
KLE1 151236Z 23008KT 24/16 A2974 RMK A01 T02440164  RH  061%=      5-min Rain = 0
KLE1 151237Z 23008KT 25/17 A2974 RMK A01 T02450166  RH  061%=      5-min Rain = 0
KLE1 151238Z 22007KT 25/17 A2974 RMK A01 T02450166  RH  061%=      5-min Rain = 0
KLE1 151239Z 21008KT 25/17 A2974 RMK A01 T02450166  RH  061%=      5-min Rain = 0
KLE1 151240Z 19007KT 25/17 A2974 RMK A01 T02460167  RH  062%=      5-min Rain = 0
KLE1 151241Z 17006KT 25/17 A2974 RMK A01 T02460173  RH  064%=      5-min Rain = 0
KLE1 151242Z 17006KT 25/17 A2974 RMK A01 T02450173  RH  064%=      5-min Rain = 0
KLE1 151243Z 16005KT 25/17 A2974 RMK A01 T02450171  RH  063%=      5-min Rain = 0
KLE1 151244Z 13006KT 25/17 A2974 RMK A01 T02450173  RH  064%=      5-min Rain = 0
KLE1 151245Z 12005KT 24/17 A2974 RMK A01 T02440171  RH  064%=      5-min Rain = 0
KLE1 151246Z 09004KT 24/17 A2974 RMK A01 T02440172  RH  064%=      5-min Rain = 0
KLE1 151247Z 07003KT 25/17 A2975 RMK A01 T02450171  RH  064%=      5-min Rain = 0
KLE1 151248Z 05004KT 25/17 A2975 RMK A01 T02450172  RH  064%=      5-min Rain = 0
KLE1 151249Z 04006KT 25/17 A2975 RMK A01 T02460172  RH  063%=      5-min Rain = 0
KLE1 151250Z 04006KT 25/17 A2975 RMK A01 T02460171  RH  063%=      5-min Rain = 0
KLE1 151251Z 06005KT 25/17 A2975 RMK A01 T02460171  RH  063%=      5-min Rain = 0
KLE1 151252Z 04006KT 25/17 A2975 RMK A01 T02470169  RH  062%=      5-min Rain = 0
KLE1 151253Z 02006KT 25/17 A2975 RMK A01 T02480172  RH  063%=      5-min Rain = 0
KLE1 151254Z 02005KT 25/17 A2975 RMK A01 T02480169  RH  062%=      5-min Rain = 0
KLE1 151255Z 02005KT 25/17 A2976 RMK A01 T02480170  RH  062%=      5-min Rain = 0
KLE1 151256Z 03004KT 25/17 A2976 RMK A01 T02490165  RH  060%=      5-min Rain = 0
KLE1 151257Z 35002KT 25/16 A2976 RMK A01 T02510162  RH  058%=      5-min Rain = 0
KLE1 151258Z 32000KT 25/16 A2976 RMK A01 T02540157  RH  055%=      5-min Rain = 0
KLE1 151259Z 19002KT 26/16 A2975 RMK A01 T02580159  RH  054%=      5-min Rain = 0
KLE1 151300Z 16003KT 26/16 A2975 RMK A01 T02610157  RH  053%=      5-min Rain = 0
KLE1 151301Z 17005KT 26/16 A2975 RMK A01 T02630162  RH  054%=      5-min Rain = 0
KLE1 151302Z 20007KT 26/17 A2974 RMK A01 T02640166  RH  055%=      5-min Rain = 0
KLE1 151303Z 23007KT 26/16 A2974 RMK A01 T02620164  RH  055%=      5-min Rain = 0
KLE1 151304Z 24007KT 26/16 A2974 RMK A01 T02620161  RH  054%=      5-min Rain = 0
KLE1 151305Z 23009KT 26/16 A2974 RMK A01 T02620164  RH  055%=      5-min Rain = 0
KLE1 151306Z 23008KT 26/16 A2974 RMK A01 T02610163  RH  055%=      5-min Rain = 0
KLE1 151307Z 23007KT 26/17 A2975 RMK A01 T02610166  RH  056%=      5-min Rain = 0
KLE1 151308Z 22008KT 26/17 A2975 RMK A01 T02600169  RH  057%=      5-min Rain = 0
KLE1 151309Z 21007KT 26/17 A2974 RMK A01 T02590169  RH  058%=      5-min Rain = 0
KLE1 151310Z 21006KT 26/17 A2974 RMK A01 T02590168  RH  057%=      5-min Rain = 0
KLE1 151311Z 20005KT 26/17 A2974 RMK A01 T02580171  RH  059%=      5-min Rain = 0
KLE1 151312Z 20005KT 26/17 A2974 RMK A01 T02570172  RH  059%=      5-min Rain = 0
KLE1 151313Z 18005KT 26/18 A2975 RMK A01 T02560175  RH  061%=      5-min Rain = 0
KLE1 151314Z 19006KT 26/17 A2975 RMK A01 T02560171  RH  059%=      5-min Rain = 0
KLE1 151315Z 20005KT 26/17 A2975 RMK A01 T02560171  RH  059%=      5-min Rain = 0
KLE1 151316Z 17005KT 26/17 A2975 RMK A01 T02570172  RH  059%=      5-min Rain = 0
KLE1 151317Z 15006KT 26/17 A2975 RMK A01 T02570171  RH  059%=      5-min Rain = 0
KLE1 151318Z 14006KT 26/17 A2975 RMK A01 T02570171  RH  059%=      5-min Rain = 0
KLE1 151319Z 12006KT 26/17 A2975 RMK A01 T02570171  RH  059%=      5-min Rain = 0
KLE1 151320Z 10006KT 26/17 A2975 RMK A01 T02570174  RH  060%=      5-min Rain = 0
KLE1 151321Z 11006KT 26/17 A2976 RMK A01 T02580173  RH  060%=      5-min Rain = 0
KLE1 151322Z 11005KT 26/17 A2976 RMK A01 T02580174  RH  060%=      5-min Rain = 0
KLE1 151323Z 11008KT 26/17 A2976 RMK A01 T02580174  RH  060%=      5-min Rain = 0
KLE1 151324Z 11009KT 26/17 A2976 RMK A01 T02570173  RH  060%=      5-min Rain = 0
KLE1 151325Z 12008KT 26/17 A2976 RMK A01 T02550173  RH  060%=      5-min Rain = 0
KLE1 151326Z 12009KT 26/17 A2976 RMK A01 T02550174  RH  061%=      5-min Rain = 0
KLE1 151327Z 13009KT 25/17 A2976 RMK A01 T02540172  RH  061%=      5-min Rain = 0
KLE1 151328Z 13008KT 25/17 A2976 RMK A01 T02540173  RH  061%=      5-min Rain = 0
KLE1 151329Z 14009KT 25/17 A2975 RMK A01 T02540173  RH  061%=      5-min Rain = 0
KLE1 151330Z 14008KT 25/17 A2975 RMK A01 T02540173  RH  061%=      5-min Rain = 0
KLE1 151331Z 14006KT 25/18 A2975 RMK A01 T02540175  RH  062%=      5-min Rain = 0
KLE1 151332Z 16007KT 26/17 A2975 RMK A01 T02550170  RH  060%=      5-min Rain = 0
KLE1 151333Z 17008KT 26/17 A2975 RMK A01 T02560173  RH  060%=      5-min Rain = 0
KLE1 151334Z 18007KT 26/17 A2975 RMK A01 T02570167  RH  058%=      5-min Rain = 0
KLE1 151335Z 18008KT 26/17 A2975 RMK A01 T02580171  RH  059%=      5-min Rain = 0
KLE1 151336Z 17008KT 26/17 A2975 RMK A01 T02580174  RH  060%=      5-min Rain = 0
KLE1 151337Z 16008KT 26/18 A2975 RMK A01 T02570175  RH  061%=      5-min Rain = 0
KLE1 151338Z 16006KT 26/17 A2976 RMK A01 T02560174  RH  060%=      5-min Rain = 0
KLE1 151339Z 15004KT 26/18 A2976 RMK A01 T02560176  RH  061%=      5-min Rain = 0
KLE1 151340Z 14002KT 26/18 A2976 RMK A01 T02560176  RH  061%=      5-min Rain = 0
KLE1 151341Z 13002KT 26/18 A2977 RMK A01 T02570176  RH  061%=      5-min Rain = 0
KLE1 151342Z 13003KT 26/18 A2977 RMK A01 T02590177  RH  061%=      5-min Rain = 0
KLE1 151343Z 13003KT 26/17 A2977 RMK A01 T02600174  RH  059%=      5-min Rain = 0
KLE1 151344Z 11003KT 26/18 A2977 RMK A01 T02600176  RH  059%=      5-min Rain = 0
KLE1 151345Z 11005KT 26/18 A2977 RMK A01 T02610176  RH  060%=      5-min Rain = 0
KLE1 151346Z 11004KT 26/18 A2977 RMK A01 T02610176  RH  059%=      5-min Rain = 0
KLE1 151347Z 10004KT 26/17 A2977 RMK A01 T02610174  RH  059%=      5-min Rain = 0
KLE1 151348Z 09004KT 26/18 A2977 RMK A01 T02620177  RH  059%=      5-min Rain = 0
KLE1 151349Z 11004KT 26/18 A2977 RMK A01 T02630181  RH  061%=      5-min Rain = 0
KLE1 151350Z 12005KT 26/18 A2977 RMK A01 T02640178  RH  059%=      5-min Rain = 0
KLE1 151351Z 10005KT 26/18 A2977 RMK A01 T02640179  RH  060%=      5-min Rain = 0
KLE1 151352Z 10004KT 26/18 A2977 RMK A01 T02640176  RH  058%=      5-min Rain = 0
KLE1 151353Z 10004KT 26/18 A2977 RMK A01 T02640178  RH  059%=      5-min Rain = 0
KLE1 151354Z 08004KT 26/18 A2977 RMK A01 T02640177  RH  059%=      5-min Rain = 0
KLE1 151355Z 08003KT 26/18 A2977 RMK A01 T02630175  RH  058%=      5-min Rain = 0
KLE1 151356Z 11004KT 26/18 A2977 RMK A01 T02630179  RH  060%=      5-min Rain = 0
KLE1 151357Z 12004KT 26/18 A2976 RMK A01 T02640176  RH  058%=      5-min Rain = 0
KLE1 151358Z 13003KT 26/17 A2976 RMK A01 T02640173  RH  057%=      5-min Rain = 0
KLE1 151359Z 13003KT 26/17 A2976 RMK A01 T02630173  RH  057%=      5-min Rain = 0
KLE1 151400Z 14003KT 26/17 A2976 RMK A01 T02630173  RH  057%=      5-min Rain = 0
KLE1 151401Z 13003KT 26/17 A2976 RMK A01 T02630173  RH  058%=      5-min Rain = 0
KLE1 151402Z 13003KT 26/17 A2976 RMK A01 T02640173  RH  057%=      5-min Rain = 0
KLE1 151403Z 13003KT 27/18 A2976 RMK A01 T02650175  RH  058%=      5-min Rain = 0
KLE1 151404Z 14004KT 27/17 A2976 RMK A01 T02650174  RH  057%=      5-min Rain = 0
KLE1 151405Z 13004KT 27/17 A2976 RMK A01 T02650174  RH  057%=      5-min Rain = 0
KLE1 151406Z 11003KT 27/17 A2976 RMK A01 T02660173  RH  057%=      5-min Rain = 0
KLE1 151407Z 11003KT 27/18 A2977 RMK A01 T02660175  RH  057%=      5-min Rain = 0
KLE1 151408Z 11003KT 27/18 A2977 RMK A01 T02670180  RH  059%=      5-min Rain = 0
KLE1 151409Z 10002KT 27/18 A2977 RMK A01 T02690182  RH  059%=      5-min Rain = 0
KLE1 151410Z 10003KT 27/17 A2977 RMK A01 T02710174  RH  055%=      5-min Rain = 0
KLE1 151411Z 10002KT 27/17 A2977 RMK A01 T02720170  RH  054%=      5-min Rain = 0
KLE1 151412Z 11002KT 27/17 A2977 RMK A01 T02720171  RH  054%=      5-min Rain = 0
KLE1 151413Z 13003KT 27/17 A2976 RMK A01 T02710169  RH  054%=      5-min Rain = 0
KLE1 151414Z 14003KT 27/17 A2976 RMK A01 T02720171  RH  054%=      5-min Rain = 0
KLE1 151415Z 13001KT 27/17 A2976 RMK A01 T02720170  RH  054%=      5-min Rain = 0
KLE1 151416Z 35000KT 27/17 A2976 RMK A01 T02720170  RH  054%=      5-min Rain = 0
KLE1 151417Z 34000KT 27/17 A2976 RMK A01 T02730174  RH  055%=      5-min Rain = 0
KLE1 151418Z 13000KT 28/18 A2976 RMK A01 T02750178  RH  056%=      5-min Rain = 0
KLE1 151419Z 16001KT 28/18 A2976 RMK A01 T02760179  RH  055%=      5-min Rain = 0
KLE1 151420Z 15005KT 28/18 A2976 RMK A01 T02780175  RH  053%=      5-min Rain = 0
KLE1 151421Z 16005KT 28/17 A2976 RMK A01 T02790171  RH  052%=      5-min Rain = 0
KLE1 151422Z 18005KT 28/16 A2976 RMK A01 T02770164  RH  050%=      5-min Rain = 0
KLE1 151423Z 19004KT 27/17 A2976 RMK A01 T02740169  RH  052%=      5-min Rain = 0
KLE1 151424Z 14004KT 27/17 A2976 RMK A01 T02730173  RH  055%=      5-min Rain = 0
KLE1 151425Z 12004KT 27/17 A2976 RMK A01 T02730174  RH  055%=      5-min Rain = 0
KLE1 151426Z 08003KT 27/18 A2976 RMK A01 T02740175  RH  055%=      5-min Rain = 0
KLE1 151427Z 10003KT 28/18 A2976 RMK A01 T02750175  RH  054%=      5-min Rain = 0
KLE1 151428Z 12002KT 28/17 A2976 RMK A01 T02760172  RH  053%=      5-min Rain = 0
KLE1 151429Z 19001KT 28/17 A2976 RMK A01 T02770174  RH  053%=      5-min Rain = 0
KLE1 151430Z 19003KT 28/17 A2976 RMK A01 T02770166  RH  051%=      5-min Rain = 0
KLE1 151431Z 21003KT 28/17 A2975 RMK A01 T02770165  RH  051%=      5-min Rain = 0
KLE1 151432Z 22004KT 28/16 A2975 RMK A01 T02770163  RH  050%=      5-min Rain = 0
KLE1 151433Z 23006KT 28/16 A2975 RMK A01 T02760164  RH  051%=      5-min Rain = 0
KLE1 151434Z 23006KT 27/16 A2975 RMK A01 T02740163  RH  050%=      5-min Rain = 0
KLE1 151435Z 25004KT 27/16 A2975 RMK A01 T02730161  RH  050%=      5-min Rain = 0
KLE1 151436Z 27003KT 27/16 A2975 RMK A01 T02730162  RH  051%=      5-min Rain = 0
KLE1 151437Z 24004KT 27/17 A2975 RMK A01 T02730166  RH  052%=      5-min Rain = 0
KLE1 151438Z 26003KT 27/16 A2975 RMK A01 T02740163  RH  051%=      5-min Rain = 0
KLE1 151439Z 28003KT 27/16 A2976 RMK A01 T02740164  RH  051%=      5-min Rain = 0
KLE1 151440Z 28002KT 28/17 A2976 RMK A01 T02750165  RH  051%=      5-min Rain = 0
KLE1 151441Z 25001KT 28/17 A2976 RMK A01 T02760165  RH  051%=      5-min Rain = 0
KLE1 151442Z 27003KT 28/17 A2976 RMK A01 T02760168  RH  051%=      5-min Rain = 0
KLE1 151443Z 26002KT 28/16 A2976 RMK A01 T02770162  RH  049%=      5-min Rain = 0
KLE1 151444Z 26001KT 28/16 A2976 RMK A01 T02770161  RH  049%=      5-min Rain = 0
KLE1 151445Z 26002KT 28/16 A2976 RMK A01 T02770159  RH  049%=      5-min Rain = 0
KLE1 151446Z 25001KT 28/16 A2976 RMK A01 T02770158  RH  048%=      5-min Rain = 0
KLE1 151447Z 25001KT 28/15 A2976 RMK A01 T02770154  RH  047%=      5-min Rain = 0
KLE1 151448Z 23003KT 28/16 A2976 RMK A01 T02770163  RH  050%=      5-min Rain = 0
KLE1 151449Z 25003KT 28/16 A2976 RMK A01 T02770157  RH  048%=      5-min Rain = 0
KLE1 151450Z 26003KT 28/16 A2976 RMK A01 T02770159  RH  049%=      5-min Rain = 0
KLE1 151451Z 26002KT 28/16 A2975 RMK A01 T02770159  RH  049%=      5-min Rain = 0
KLE1 151452Z 26001KT 28/16 A2975 RMK A01 T02770161  RH  049%=      5-min Rain = 0
KLE1 151453Z 21003KT 28/17 A2975 RMK A01 T02770165  RH  051%=      5-min Rain = 0
KLE1 151454Z 22005KT 28/17 A2975 RMK A01 T02780165  RH  050%=      5-min Rain = 0
KLE1 151455Z 22003KT 28/16 A2975 RMK A01 T02790161  RH  049%=      5-min Rain = 0
KLE1 151456Z 26003KT 28/16 A2976 RMK A01 T02780163  RH  050%=      5-min Rain = 0
KLE1 151457Z 25002KT 28/17 A2976 RMK A01 T02790166  RH  050%=      5-min Rain = 0
KLE1 151458Z 31001KT 28/16 A2976 RMK A01 T02800158  RH  048%=      5-min Rain = 0
KLE1 151459Z 23001KT 28/16 A2975 RMK A01 T02790163  RH  049%=      5-min Rain = 0
KLE1 151500Z 21003KT 28/17 A2975 RMK A01 T02800166  RH  050%=      5-min Rain = 0
KLE1 151501Z 23004KT 28/16 A2976 RMK A01 T02800161  RH  048%=      5-min Rain = 0
KLE1 151502Z 23004KT 28/16 A2976 RMK A01 T02790162  RH  049%=      5-min Rain = 0
KLE1 151503Z 19003KT 28/16 A2976 RMK A01 T02790163  RH  049%=      5-min Rain = 0
KLE1 151504Z 18002KT 28/16 A2976 RMK A01 T02790163  RH  049%=      5-min Rain = 0
KLE1 151505Z 19001KT 28/16 A2976 RMK A01 T02800160  RH  048%=      5-min Rain = 0
KLE1 151506Z 16001KT 28/16 A2976 RMK A01 T02810161  RH  048%=      5-min Rain = 0
KLE1 151507Z 18002KT 28/16 A2976 RMK A01 T02820160  RH  047%=      5-min Rain = 0
KLE1 151508Z 23002KT 28/16 A2976 RMK A01 T02830161  RH  047%=      5-min Rain = 0
KLE1 151509Z 20001KT 28/16 A2976 RMK A01 T02830163  RH  048%=      5-min Rain = 0
KLE1 151510Z 19002KT 28/16 A2976 RMK A01 T02830164  RH  048%=      5-min Rain = 0
KLE1 151511Z 20001KT 28/16 A2975 RMK A01 T02830159  RH  047%=      5-min Rain = 0
KLE1 151512Z 11001KT 28/16 A2975 RMK A01 T02820162  RH  048%=      5-min Rain = 0
KLE1 151513Z 21001KT 28/17 A2976 RMK A01 T02840170  RH  050%=      5-min Rain = 0
KLE1 151514Z 22002KT 29/17 A2976 RMK A01 T02850167  RH  049%=      5-min Rain = 0
KLE1 151515Z 24005KT 29/17 A2976 RMK A01 T02860166  RH  048%=      5-min Rain = 0
KLE1 151516Z 24004KT 29/17 A2976 RMK A01 T02860166  RH  048%=      5-min Rain = 0
KLE1 151517Z 22001KT 29/16 A2976 RMK A01 T02860158  RH  046%=      5-min Rain = 0
KLE1 151518Z 28002KT 29/16 A2976 RMK A01 T02850158  RH  046%=      5-min Rain = 0
KLE1 151519Z 27003KT 29/15 A2976 RMK A01 T02850153  RH  045%=      5-min Rain = 0
KLE1 151520Z 28005KT 28/16 A2976 RMK A01 T02840158  RH  046%=      5-min Rain = 0
KLE1 151521Z 29003KT 28/15 A2976 RMK A01 T02840153  RH  045%=      5-min Rain = 0
KLE1 151522Z 29001KT 28/16 A2976 RMK A01 T02830156  RH  046%=      5-min Rain = 0
KLE1 151523Z 28002KT 28/15 A2976 RMK A01 T02830154  RH  045%=      5-min Rain = 0
KLE1 151524Z 23003KT 28/16 A2976 RMK A01 T02830158  RH  046%=      5-min Rain = 0
KLE1 151525Z 21002KT 28/15 A2976 RMK A01 T02830152  RH  045%=      5-min Rain = 0
KLE1 151526Z 23000KT 28/15 A2976 RMK A01 T02830154  RH  046%=      5-min Rain = 0
KLE1 151527Z 28001KT 28/16 A2976 RMK A01 T02840155  RH  045%=      5-min Rain = 0
KLE1 151528Z 28004KT 29/15 A2976 RMK A01 T02850154  RH  045%=      5-min Rain = 0
KLE1 151529Z 29005KT 29/15 A2976 RMK A01 T02850153  RH  045%=      5-min Rain = 0
KLE1 151530Z 27007KT 29/16 A2976 RMK A01 T02850157  RH  046%=      5-min Rain = 0
KLE1 151531Z 28006KT 29/15 A2976 RMK A01 T02850154  RH  045%=      5-min Rain = 0
KLE1 151532Z 29006KT 28/16 A2976 RMK A01 T02840161  RH  047%=      5-min Rain = 0
KLE1 151533Z 30006KT 29/16 A2976 RMK A01 T02860156  RH  045%=      5-min Rain = 0
KLE1 151534Z 30004KT 29/15 A2976 RMK A01 T02850154  RH  045%=      5-min Rain = 0
KLE1 151535Z 27002KT 28/15 A2976 RMK A01 T02840154  RH  045%=      5-min Rain = 0
KLE1 151536Z 29005KT 28/16 A2976 RMK A01 T02840158  RH  046%=      5-min Rain = 0
KLE1 151537Z 29006KT 29/16 A2976 RMK A01 T02860158  RH  046%=      5-min Rain = 0
KLE1 151538Z 29006KT 29/16 A2976 RMK A01 T02870162  RH  047%=      5-min Rain = 0
KLE1 151539Z 28006KT 29/16 A2976 RMK A01 T02880156  RH  045%=      5-min Rain = 0
KLE1 151540Z 27006KT 29/16 A2976 RMK A01 T02870157  RH  045%=      5-min Rain = 0
KLE1 151541Z 25003KT 29/15 A2976 RMK A01 T02860151  RH  044%=      5-min Rain = 0
KLE1 151542Z 28002KT 29/16 A2976 RMK A01 T02850157  RH  046%=      5-min Rain = 0
KLE1 151543Z 30004KT 29/16 A2976 RMK A01 T02850158  RH  046%=      5-min Rain = 0
KLE1 151544Z 29006KT 29/16 A2976 RMK A01 T02860160  RH  046%=      5-min Rain = 0
KLE1 151545Z 26006KT 29/16 A2976 RMK A01 T02870156  RH  045%=      5-min Rain = 0
KLE1 151546Z 25005KT 29/16 A2976 RMK A01 T02860158  RH  046%=      5-min Rain = 0
KLE1 151547Z 26005KT 29/16 A2976 RMK A01 T02860161  RH  047%=      5-min Rain = 0
KLE1 151548Z 27004KT 29/16 A2976 RMK A01 T02860158  RH  046%=      5-min Rain = 0
KLE1 151549Z 25006KT 29/16 A2976 RMK A01 T02880163  RH  047%=      5-min Rain = 0
KLE1 151550Z 26006KT 29/16 A2976 RMK A01 T02880157  RH  045%=      5-min Rain = 0
KLE1 151551Z 26006KT 29/15 A2976 RMK A01 T02870154  RH  044%=      5-min Rain = 0
KLE1 151552Z 24006KT 29/16 A2976 RMK A01 T02860157  RH  045%=      5-min Rain = 0
KLE1 151553Z 23004KT 29/16 A2976 RMK A01 T02860155  RH  045%=      5-min Rain = 0
KLE1 151554Z 27003KT 29/16 A2977 RMK A01 T02850155  RH  045%=      5-min Rain = 0
KLE1 151555Z 28005KT 29/16 A2977 RMK A01 T02850157  RH  046%=      5-min Rain = 0
KLE1 151556Z 31003KT 29/16 A2977 RMK A01 T02860157  RH  045%=      5-min Rain = 0
KLE1 151557Z 29004KT 29/16 A2976 RMK A01 T02870162  RH  047%=      5-min Rain = 0
KLE1 151558Z 28004KT 29/16 A2977 RMK A01 T02890158  RH  045%=      5-min Rain = 0
KLE1 151559Z 27001KT 29/15 A2977 RMK A01 T02890153  RH  044%=      5-min Rain = 0
KLE1 151600Z 02001KT 29/15 A2977 RMK A01 T02890152  RH  043%=      5-min Rain = 0
KLE1 151601Z 32003KT 29/16 A2977 RMK A01 T02890160  RH  046%=      5-min Rain = 0
KLE1 151602Z 29004KT 29/16 A2977 RMK A01 T02880162  RH  046%=      5-min Rain = 0
KLE1 151603Z 27005KT 29/16 A2977 RMK A01 T02890164  RH  047%=      5-min Rain = 0
KLE1 151604Z 28006KT 29/16 A2977 RMK A01 T02900159  RH  045%=      5-min Rain = 0
KLE1 151605Z 29008KT 29/16 A2977 RMK A01 T02900162  RH  046%=      5-min Rain = 0
KLE1 151606Z 30007KT 29/16 A2977 RMK A01 T02910161  RH  045%=      5-min Rain = 0
KLE1 151607Z 31007KT 29/16 A2977 RMK A01 T02900158  RH  045%=      5-min Rain = 0
KLE1 151608Z 29005KT 29/16 A2977 RMK A01 T02890162  RH  046%=      5-min Rain = 0
KLE1 151609Z 27003KT 29/16 A2977 RMK A01 T02890161  RH  046%=      5-min Rain = 0
KLE1 151610Z 31005KT 29/16 A2977 RMK A01 T02900161  RH  046%=      5-min Rain = 0
KLE1 151611Z 30009KT 29/16 A2977 RMK A01 T02910159  RH  045%=      5-min Rain = 0
KLE1 151612Z 29007KT 29/16 A2977 RMK A01 T02900156  RH  044%=      5-min Rain = 0
KLE1 151613Z 29009KT 29/16 A2977 RMK A01 T02890158  RH  045%=      5-min Rain = 0
KLE1 151614Z 29007KT 29/16 A2977 RMK A01 T02890157  RH  045%=      5-min Rain = 0
KLE1 151615Z 27005KT 29/16 A2977 RMK A01 T02890161  RH  046%=      5-min Rain = 0
KLE1 151616Z 31003KT 29/17 A2977 RMK A01 T02900165  RH  047%=      5-min Rain = 0
KLE1 151617Z 31004KT 29/16 A2977 RMK A01 T02920164  RH  046%=      5-min Rain = 0
KLE1 151618Z 31004KT 29/16 A2977 RMK A01 T02920160  RH  045%=      5-min Rain = 0
KLE1 151619Z 30005G10KT 29/16 A2978 RMK A01 T02920161  RH  045%=      5-min Rain = 0
KLE1 151620Z 29006KT 29/17 A2978 RMK A01 T02910165  RH  047%=      5-min Rain = 0
KLE1 151621Z 31006KT 29/16 A2978 RMK A01 T02920164  RH  046%=      5-min Rain = 0
KLE1 151622Z 33007KT 29/16 A2978 RMK A01 T02920162  RH  045%=      5-min Rain = 0
KLE1 151623Z 34006KT 29/16 A2977 RMK A01 T02910161  RH  045%=      5-min Rain = 0
KLE1 151624Z 31008KT 29/17 A2977 RMK A01 T02910169  RH  048%=      5-min Rain = 0
KLE1 151625Z 30008KT 29/17 A2977 RMK A01 T02940167  RH  046%=      5-min Rain = 0
KLE1 151626Z 30007KT 30/17 A2977 RMK A01 T02950169  RH  047%=      5-min Rain = 0
KLE1 151627Z 30008KT 30/16 A2978 RMK A01 T02970163  RH  045%=      5-min Rain = 0
KLE1 151628Z 28009KT 30/16 A2978 RMK A01 T02950160  RH  044%=      5-min Rain = 0
KLE1 151629Z 27007KT 29/16 A2978 RMK A01 T02920157  RH  044%=      5-min Rain = 0
KLE1 151630Z 28008KT 29/16 A2978 RMK A01 T02910160  RH  045%=      5-min Rain = 0
KLE1 151631Z 32008KT 29/16 A2978 RMK A01 T02910162  RH  046%=      5-min Rain = 0
KLE1 151632Z 32006KT 29/16 A2978 RMK A01 T02920161  RH  045%=      5-min Rain = 0
KLE1 151633Z 31007KT 29/16 A2978 RMK A01 T02920161  RH  045%=      5-min Rain = 0
KLE1 151634Z 30008KT 29/16 A2978 RMK A01 T02930162  RH  045%=      5-min Rain = 0
KLE1 151635Z 31008KT 29/16 A2978 RMK A01 T02930158  RH  044%=      5-min Rain = 0
KLE1 151636Z 30007KT 29/16 A2978 RMK A01 T02910157  RH  044%=      5-min Rain = 0
KLE1 151637Z 31005KT 29/16 A2978 RMK A01 T02900158  RH  045%=      5-min Rain = 0
KLE1 151638Z 31004KT 29/16 A2978 RMK A01 T02900160  RH  045%=      5-min Rain = 0
KLE1 151639Z 31006KT 29/16 A2978 RMK A01 T02900159  RH  045%=      5-min Rain = 0
KLE1 151640Z 30007KT 29/16 A2978 RMK A01 T02910163  RH  046%=      5-min Rain = 0
KLE1 151641Z 32007KT 29/17 A2978 RMK A01 T02940165  RH  046%=      5-min Rain = 0
KLE1 151642Z 31005KT 30/16 A2978 RMK A01 T02950159  RH  044%=      5-min Rain = 0
KLE1 151643Z 31005KT 29/16 A2978 RMK A01 T02940158  RH  044%=      5-min Rain = 0
KLE1 151644Z 29004KT 29/16 A2978 RMK A01 T02920155  RH  043%=      5-min Rain = 0
KLE1 151645Z 21002KT 29/16 A2978 RMK A01 T02910156  RH  044%=      5-min Rain = 0
KLE1 151646Z 16002KT 29/15 A2978 RMK A01 T02900153  RH  043%=      5-min Rain = 0
KLE1 151647Z 23001KT 29/16 A2978 RMK A01 T02900162  RH  046%=      5-min Rain = 0
KLE1 151648Z 26004KT 29/16 A2978 RMK A01 T02910161  RH  045%=      5-min Rain = 0
KLE1 151649Z 26003KT 29/17 A2978 RMK A01 T02930165  RH  046%=      5-min Rain = 0
KLE1 151650Z 28004KT 29/16 A2978 RMK A01 T02940161  RH  045%=      5-min Rain = 0
KLE1 151651Z 28008KT 30/16 A2978 RMK A01 T02950164  RH  045%=      5-min Rain = 0
KLE1 151652Z 28004KT 30/16 A2978 RMK A01 T02950162  RH  045%=      5-min Rain = 0
KLE1 151653Z 25005KT 30/16 A2978 RMK A01 T02950161  RH  045%=      5-min Rain = 0
KLE1 151654Z 28004KT 29/16 A2978 RMK A01 T02940159  RH  044%=      5-min Rain = 0
KLE1 151655Z 28002KT 29/16 A2978 RMK A01 T02940159  RH  044%=      5-min Rain = 0
KLE1 151656Z 28004KT 29/16 A2978 RMK A01 T02930162  RH  045%=      5-min Rain = 0
KLE1 151657Z 27004KT 30/17 A2978 RMK A01 T02950166  RH  046%=      5-min Rain = 0
KLE1 151658Z 25007KT 30/17 A2978 RMK A01 T02950169  RH  046%=      5-min Rain = 0
KLE1 151659Z 24006KT 30/17 A2978 RMK A01 T02960170  RH  047%=      5-min Rain = 0
KLE1 151700Z 28004KT 30/17 A2978 RMK A01 T02960168  RH  046%=      5-min Rain = 0
KLE1 151701Z 26005KT 30/17 A2978 RMK A01 T02970171  RH  047%=      5-min Rain = 0
KLE1 151702Z 24006KT 30/17 A2978 RMK A01 T02970165  RH  045%=      5-min Rain = 0
KLE1 151703Z 26005KT 30/17 A2978 RMK A01 T02970167  RH  046%=      5-min Rain = 0
KLE1 151704Z 28006KT 30/17 A2978 RMK A01 T02960168  RH  046%=      5-min Rain = 0
KLE1 151705Z 28003KT 30/16 A2978 RMK A01 T02970160  RH  044%=      5-min Rain = 0
KLE1 151706Z 26003KT 30/16 A2978 RMK A01 T02960164  RH  045%=      5-min Rain = 0
KLE1 151707Z 30005KT 30/17 A2978 RMK A01 T02950168  RH  046%=      5-min Rain = 0
KLE1 151708Z 32009KT 30/17 A2979 RMK A01 T02970173  RH  047%=      5-min Rain = 0
KLE1 151709Z 30007KT 30/17 A2979 RMK A01 T02980168  RH  046%=      5-min Rain = 0
KLE1 151710Z 32007KT 30/17 A2978 RMK A01 T02980170  RH  046%=      5-min Rain = 0
KLE1 151711Z 32008KT 30/17 A2978 RMK A01 T02970168  RH  046%=      5-min Rain = 0
KLE1 151712Z 32005KT 30/17 A2979 RMK A01 T02970169  RH  046%=      5-min Rain = 0
KLE1 151713Z 33004KT 30/17 A2979 RMK A01 T02970168  RH  046%=      5-min Rain = 0
KLE1 151714Z 35004KT 30/17 A2979 RMK A01 T02970172  RH  047%=      5-min Rain = 0
KLE1 151715Z 35004KT 30/17 A2978 RMK A01 T02970169  RH  046%=      5-min Rain = 0
KLE1 151716Z 36003KT 30/17 A2978 RMK A01 T02980174  RH  047%=      5-min Rain = 0
KLE1 151717Z 01002KT 30/17 A2978 RMK A01 T02990168  RH  045%=      5-min Rain = 0
KLE1 151718Z 31001KT 30/17 A2978 RMK A01 T02990169  RH  046%=      5-min Rain = 0
KLE1 151719Z 24003KT 30/17 A2978 RMK A01 T03000170  RH  046%=      5-min Rain = 0
KLE1 151720Z 24004KT 30/17 A2978 RMK A01 T03000166  RH  044%=      5-min Rain = 0
KLE1 151721Z 23004KT 30/17 A2978 RMK A01 T02990168  RH  045%=      5-min Rain = 0
KLE1 151722Z 22003KT 30/17 A2978 RMK A01 T02980166  RH  045%=      5-min Rain = 0
KLE1 151723Z 20002KT 30/17 A2978 RMK A01 T02980166  RH  045%=      5-min Rain = 0
KLE1 151724Z 19001KT 30/17 A2978 RMK A01 T02980173  RH  047%=      5-min Rain = 0
KLE1 151725Z 31002KT 30/17 A2978 RMK A01 T02980173  RH  047%=      5-min Rain = 0
KLE1 151726Z 31007KT 30/17 A2978 RMK A01 T03010172  RH  046%=      5-min Rain = 0
KLE1 151727Z 32006KT 30/17 A2978 RMK A01 T03020172  RH  046%=      5-min Rain = 0
KLE1 151728Z 32004KT 30/17 A2978 RMK A01 T03020167  RH  044%=      5-min Rain = 0
KLE1 151729Z 29003KT 30/17 A2978 RMK A01 T03010169  RH  045%=      5-min Rain = 0
KLE1 151730Z 27004KT 30/17 A2978 RMK A01 T03010173  RH  046%=      5-min Rain = 0
KLE1 151731Z 26004KT 30/17 A2978 RMK A01 T03030171  RH  045%=      5-min Rain = 0
KLE1 151732Z 30005KT 30/17 A2978 RMK A01 T03020173  RH  046%=      5-min Rain = 0
KLE1 151733Z 29006KT 30/18 A2978 RMK A01 T03030175  RH  046%=      5-min Rain = 0
KLE1 151734Z 26003KT 30/17 A2978 RMK A01 T03040168  RH  044%=      5-min Rain = 0
KLE1 151735Z 27005KT 30/17 A2978 RMK A01 T03030168  RH  044%=      5-min Rain = 0
KLE1 151736Z 27005KT 30/17 A2978 RMK A01 T03020169  RH  045%=      5-min Rain = 0
KLE1 151737Z 27003KT 30/17 A2978 RMK A01 T03000167  RH  045%=      5-min Rain = 0
KLE1 151738Z 23002KT 30/17 A2978 RMK A01 T03000168  RH  045%=      5-min Rain = 0
KLE1 151739Z 26001KT 30/17 A2978 RMK A01 T03000169  RH  045%=      5-min Rain = 0
KLE1 151740Z 28003KT 30/17 A2978 RMK A01 T03010169  RH  045%=      5-min Rain = 0
KLE1 151741Z 31005KT 30/17 A2978 RMK A01 T03020174  RH  046%=      5-min Rain = 0
KLE1 151742Z 31008KT 30/18 A2978 RMK A01 T03030178  RH  047%=      5-min Rain = 0
KLE1 151743Z 33009KT 30/18 A2978 RMK A01 T03040175  RH  046%=      5-min Rain = 0
KLE1 151744Z 32008KT 30/17 A2978 RMK A01 T03040174  RH  046%=      5-min Rain = 0
KLE1 151745Z 33009KT 30/17 A2978 RMK A01 T03040174  RH  046%=      5-min Rain = 0
KLE1 151746Z 33005KT 30/17 A2978 RMK A01 T03030170  RH  045%=      5-min Rain = 0
KLE1 151747Z 30007KT 30/18 A2978 RMK A01 T03020179  RH  047%=      5-min Rain = 0
KLE1 151748Z 31010KT 30/18 A2978 RMK A01 T03040179  RH  047%=      5-min Rain = 0
KLE1 151749Z 33007KT 31/17 A2978 RMK A01 T03050174  RH  046%=      5-min Rain = 0
KLE1 151750Z 31006KT 30/18 A2978 RMK A01 T03040177  RH  047%=      5-min Rain = 0
KLE1 151751Z 28007KT 30/18 A2978 RMK A01 T03030178  RH  047%=      5-min Rain = 0
KLE1 151752Z 29008KT 30/18 A2978 RMK A01 T03020180  RH  048%=      5-min Rain = 0
KLE1 151753Z 32009KT 30/18 A2978 RMK A01 T03030180  RH  048%=      5-min Rain = 0
KLE1 151754Z 31007KT 30/18 A2978 RMK A01 T03030179  RH  047%=      5-min Rain = 0
KLE1 151755Z 28007KT 30/18 A2978 RMK A01 T03040183  RH  048%=      5-min Rain = 0
KLE1 151756Z 28008KT 31/18 A2978 RMK A01 T03060182  RH  048%=      5-min Rain = 0
KLE1 151757Z 29009KT 31/18 A2978 RMK A01 T03060181  RH  047%=      5-min Rain = 0
KLE1 151758Z 28005KT 31/18 A2978 RMK A01 T03060177  RH  046%=      5-min Rain = 0
KLE1 151759Z 27006KT 30/18 A2978 RMK A01 T03040178  RH  047%=      5-min Rain = 0
KLE1 151800Z 27010KT 30/18 A2978 RMK A01 T03040183  RH  048%=      5-min Rain = 0
KLE1 151801Z 27008KT 31/18 A2978 RMK A01 T03060180  RH  047%=      5-min Rain = 0
KLE1 151802Z 30009KT 31/18 A2978 RMK A01 T03060180  RH  047%=      5-min Rain = 0
KLE1 151803Z 28006KT 31/18 A2978 RMK A01 T03070177  RH  046%=      5-min Rain = 0
KLE1 151804Z 29006G11KT 31/18 A2977 RMK A01 T03070182  RH  047%=      5-min Rain = 0
KLE1 151805Z 29008KT 31/18 A2977 RMK A01 T03070180  RH  047%=      5-min Rain = 0
KLE1 151806Z 33009KT 31/18 A2977 RMK A01 T03090182  RH  047%=      5-min Rain = 0
KLE1 151807Z 35008KT 31/18 A2977 RMK A01 T03100179  RH  045%=      5-min Rain = 0
KLE1 151808Z 35006KT 31/18 A2977 RMK A01 T03100180  RH  046%=      5-min Rain = 0
KLE1 151809Z 32009KT 31/18 A2977 RMK A01 T03100179  RH  045%=      5-min Rain = 0
KLE1 151810Z 33005KT 31/17 A2977 RMK A01 T03090173  RH  044%=      5-min Rain = 0
KLE1 151811Z 30005KT 31/17 A2977 RMK A01 T03060174  RH  045%=      5-min Rain = 0
KLE1 151812Z 31005KT 31/18 A2977 RMK A01 T03060179  RH  047%=      5-min Rain = 0
KLE1 151813Z 34009KT 31/18 A2977 RMK A01 T03080178  RH  046%=      5-min Rain = 0
KLE1 151814Z 34009KT 31/19 A2977 RMK A01 T03100185  RH  047%=      5-min Rain = 0
KLE1 151815Z 33006KT 31/18 A2977 RMK A01 T03120180  RH  045%=      5-min Rain = 0
KLE1 151816Z 34009KT 31/18 A2977 RMK A01 T03120181  RH  045%=      5-min Rain = 0
KLE1 151817Z 34008KT 31/18 A2977 RMK A01 T03120180  RH  045%=      5-min Rain = 0
KLE1 151818Z 35006KT 31/18 A2977 RMK A01 T03120180  RH  045%=      5-min Rain = 0
KLE1 151819Z 32005KT 31/19 A2977 RMK A01 T03120185  RH  047%=      5-min Rain = 0
KLE1 151820Z 29009KT 31/18 A2977 RMK A01 T03130184  RH  046%=      5-min Rain = 0
KLE1 151821Z 30010KT 31/18 A2977 RMK A01 T03130182  RH  046%=      5-min Rain = 0
KLE1 151822Z 30008KT 31/18 A2977 RMK A01 T03110183  RH  046%=      5-min Rain = 0
KLE1 151823Z 30009KT 31/19 A2977 RMK A01 T03110186  RH  047%=      5-min Rain = 0
KLE1 151824Z 31007KT 31/18 A2977 RMK A01 T03130179  RH  045%=      5-min Rain = 0
KLE1 151825Z 31007KT 31/19 A2977 RMK A01 T03130187  RH  047%=      5-min Rain = 0
KLE1 151826Z 35005KT 31/18 A2977 RMK A01 T03130184  RH  046%=      5-min Rain = 0
KLE1 151827Z 35005KT 31/18 A2977 RMK A01 T03140175  RH  043%=      5-min Rain = 0
KLE1 151828Z 34005KT 31/18 A2977 RMK A01 T03120179  RH  045%=      5-min Rain = 0
KLE1 151829Z 36005KT 31/18 A2977 RMK A01 T03120176  RH  044%=      5-min Rain = 0
KLE1 151830Z 02003KT 31/17 A2977 RMK A01 T03120174  RH  044%=      5-min Rain = 0
KLE1 151831Z 32002KT 31/17 A2977 RMK A01 T03110174  RH  044%=      5-min Rain = 0
KLE1 151832Z 35005KT 31/18 A2977 RMK A01 T03100178  RH  045%=      5-min Rain = 0
KLE1 151833Z 03002KT 31/18 A2977 RMK A01 T03110176  RH  045%=      5-min Rain = 0
KLE1 151834Z 04004KT 31/18 A2977 RMK A01 T03120177  RH  045%=      5-min Rain = 0
KLE1 151835Z 04003KT 31/19 A2976 RMK A01 T03120185  RH  047%=      5-min Rain = 0
KLE1 151836Z 00004KT 31/18 A2976 RMK A01 T03140183  RH  046%=      5-min Rain = 0
KLE1 151837Z 33005KT 32/18 A2976 RMK A01 T03150184  RH  046%=      5-min Rain = 0
KLE1 151838Z 32007KT 32/18 A2976 RMK A01 T03150183  RH  046%=      5-min Rain = 0
KLE1 151839Z 31006KT 32/18 A2976 RMK A01 T03150182  RH  045%=      5-min Rain = 0
KLE1 151840Z 28004KT 31/18 A2976 RMK A01 T03140177  RH  044%=      5-min Rain = 0
KLE1 151841Z 27004KT 31/18 A2976 RMK A01 T03120183  RH  046%=      5-min Rain = 0
KLE1 151842Z 29003KT 31/18 A2976 RMK A01 T03120177  RH  045%=      5-min Rain = 0
KLE1 151843Z 29003KT 31/18 A2976 RMK A01 T03120181  RH  046%=      5-min Rain = 0
KLE1 151844Z 34001KT 31/17 A2977 RMK A01 T03120173  RH  043%=      5-min Rain = 0
KLE1 151845Z 05000KT 31/18 A2977 RMK A01 T03120177  RH  045%=      5-min Rain = 0
KLE1 151846Z 33000KT 31/18 A2977 RMK A01 T03120184  RH  046%=      5-min Rain = 0
KLE1 151847Z 28002KT 31/18 A2977 RMK A01 T03130178  RH  045%=      5-min Rain = 0
KLE1 151848Z 25005KT 31/18 A2977 RMK A01 T03130183  RH  046%=      5-min Rain = 0
KLE1 151849Z 25007KT 32/19 A2977 RMK A01 T03150186  RH  046%=      5-min Rain = 0
KLE1 151850Z 26007KT 32/18 A2977 RMK A01 T03160183  RH  045%=      5-min Rain = 0
KLE1 151851Z 27006KT 32/19 A2977 RMK A01 T03160185  RH  046%=      5-min Rain = 0
KLE1 151852Z 27006KT 32/19 A2977 RMK A01 T03170185  RH  045%=      5-min Rain = 0
KLE1 151853Z 27008KT 32/19 A2977 RMK A01 T03190191  RH  047%=      5-min Rain = 0
KLE1 151854Z 25008KT 32/19 A2977 RMK A01 T03210186  RH  045%=      5-min Rain = 0
KLE1 151855Z 24002KT 32/18 A2977 RMK A01 T03190179  RH  043%=      5-min Rain = 0
KLE1 151856Z 26003KT 32/18 A2977 RMK A01 T03170183  RH  045%=      5-min Rain = 0
KLE1 151857Z 27006KT 32/19 A2977 RMK A01 T03170187  RH  046%=      5-min Rain = 0
KLE1 151858Z 26006KT 32/19 A2977 RMK A01 T03200191  RH  047%=      5-min Rain = 0
KLE1 151859Z 27004KT 32/19 A2977 RMK A01 T03220186  RH  045%=      5-min Rain = 0
KLE1 151900Z 25003KT 32/18 A2977 RMK A01 T03210184  RH  044%=      5-min Rain = 0
KLE1 151901Z 25002KT 32/19 A2977 RMK A01 T03210185  RH  044%=      5-min Rain = 0
KLE1 151902Z 25004KT 32/18 A2977 RMK A01 T03210182  RH  044%=      5-min Rain = 0
KLE1 151903Z 23002KT 32/18 A2977 RMK A01 T03190181  RH  044%=      5-min Rain = 0
KLE1 151904Z 19005KT 32/18 A2977 RMK A01 T03180183  RH  045%=      5-min Rain = 0
KLE1 151905Z 27006KT 32/18 A2978 RMK A01 T03170184  RH  045%=      5-min Rain = 0
KLE1 151906Z 27007KT 32/18 A2978 RMK A01 T03180184  RH  045%=      5-min Rain = 0
KLE1 151907Z 25006KT 32/19 A2978 RMK A01 T03190188  RH  046%=      5-min Rain = 0
KLE1 151908Z 24005KT 32/18 A2978 RMK A01 T03200183  RH  044%=      5-min Rain = 0
KLE1 151909Z 24003KT 32/18 A2977 RMK A01 T03190179  RH  043%=      5-min Rain = 0
KLE1 151910Z 27004KT 32/19 A2977 RMK A01 T03180185  RH  045%=      5-min Rain = 0
KLE1 151911Z 26006KT 32/18 A2977 RMK A01 T03190182  RH  044%=      5-min Rain = 0
KLE1 151912Z 26006KT 32/19 A2977 RMK A01 T03190186  RH  045%=      5-min Rain = 0
KLE1 151913Z 26006KT 32/19 A2977 RMK A01 T03190188  RH  046%=      5-min Rain = 0
KLE1 151914Z 28004KT 32/19 A2977 RMK A01 T03190188  RH  046%=      5-min Rain = 0
KLE1 151915Z 31005KT 32/19 A2977 RMK A01 T03200190  RH  046%=      5-min Rain = 0
KLE1 151916Z 32006KT 32/19 A2977 RMK A01 T03220190  RH  046%=      5-min Rain = 0
KLE1 151917Z 31005KT 32/19 A2977 RMK A01 T03230191  RH  046%=      5-min Rain = 0
KLE1 151918Z 32006KT 32/19 A2977 RMK A01 T03240188  RH  045%=      5-min Rain = 0
KLE1 151919Z 31005KT 32/19 A2977 RMK A01 T03230187  RH  045%=      5-min Rain = 0
KLE1 151920Z 30004KT 32/19 A2977 RMK A01 T03220185  RH  044%=      5-min Rain = 0
KLE1 151921Z 32004KT 32/19 A2977 RMK A01 T03210185  RH  045%=      5-min Rain = 0
KLE1 151922Z 34003KT 32/18 A2977 RMK A01 T03190184  RH  045%=      5-min Rain = 0
KLE1 151923Z 32001KT 32/18 A2977 RMK A01 T03180182  RH  044%=      5-min Rain = 0
KLE1 151924Z 30000KT 32/18 A2978 RMK A01 T03180181  RH  044%=      5-min Rain = 0
KLE1 151925Z 21000KT 32/18 A2978 RMK A01 T03190181  RH  044%=      5-min Rain = 0
KLE1 151926Z 23000KT 32/18 A2978 RMK A01 T03210180  RH  043%=      5-min Rain = 0
KLE1 151927Z 18001KT 32/18 A2978 RMK A01 T03220183  RH  044%=      5-min Rain = 0
KLE1 151928Z 25002KT 32/18 A2978 RMK A01 T03220184  RH  044%=      5-min Rain = 0
KLE1 151929Z 27006KT 32/19 A2978 RMK A01 T03220189  RH  045%=      5-min Rain = 0
KLE1 151930Z 29006KT 32/19 A2978 RMK A01 T03230191  RH  046%=      5-min Rain = 0
KLE1 151931Z 27007KT 32/19 A2977 RMK A01 T03240190  RH  045%=      5-min Rain = 0
KLE1 151932Z 27011KT 33/19 A2977 RMK A01 T03250194  RH  046%=      5-min Rain = 0
KLE1 151933Z 27007KT 33/19 A2978 RMK A01 T03250190  RH  045%=      5-min Rain = 0
KLE1 151934Z 27007KT 32/19 A2978 RMK A01 T03230186  RH  044%=      5-min Rain = 0
KLE1 151935Z 27002KT 32/18 A2978 RMK A01 T03210184  RH  044%=      5-min Rain = 0
KLE1 151936Z 27006KT 32/19 A2977 RMK A01 T03190190  RH  046%=      5-min Rain = 0
KLE1 151937Z 29008KT 32/19 A2977 RMK A01 T03210188  RH  045%=      5-min Rain = 0
KLE1 151938Z 29005KT 32/19 A2977 RMK A01 T03210188  RH  045%=      5-min Rain = 0
KLE1 151939Z 25005KT 32/19 A2977 RMK A01 T03210194  RH  047%=      5-min Rain = 0
KLE1 151940Z 26006KT 32/19 A2977 RMK A01 T03230194  RH  046%=      5-min Rain = 0
KLE1 151941Z 25005KT 32/20 A2977 RMK A01 T03240198  RH  047%=      5-min Rain = 0
KLE1 151942Z 25007KT 32/19 A2977 RMK A01 T03240188  RH  045%=      5-min Rain = 0
KLE1 151943Z 22005KT 32/19 A2977 RMK A01 T03210188  RH  045%=      5-min Rain = 0
KLE1 151944Z 24004KT 32/19 A2977 RMK A01 T03190187  RH  046%=      5-min Rain = 0
KLE1 151945Z 18001KT 32/19 A2977 RMK A01 T03180185  RH  045%=      5-min Rain = 0
KLE1 151946Z 23001KT 32/18 A2977 RMK A01 T03180184  RH  045%=      5-min Rain = 0
KLE1 151947Z 26002KT 32/19 A2977 RMK A01 T03180189  RH  046%=      5-min Rain = 0
KLE1 151948Z 28004G9KT 32/19 A2977 RMK A01 T03200191  RH  046%=      5-min Rain = 0
KLE1 151949Z 29009KT 32/19 A2977 RMK A01 T03220190  RH  046%=      5-min Rain = 0
KLE1 151950Z 30009KT 32/19 A2977 RMK A01 T03240189  RH  045%=      5-min Rain = 0
KLE1 151951Z 31006KT 32/19 A2977 RMK A01 T03220186  RH  045%=      5-min Rain = 0
KLE1 151952Z 28005KT 32/19 A2977 RMK A01 T03200186  RH  045%=      5-min Rain = 0
KLE1 151953Z 28006KT 32/19 A2977 RMK A01 T03200191  RH  046%=      5-min Rain = 0
KLE1 151954Z 27005KT 32/19 A2977 RMK A01 T03210187  RH  045%=      5-min Rain = 0
KLE1 151955Z 28004KT 32/19 A2977 RMK A01 T03210189  RH  046%=      5-min Rain = 0
KLE1 151956Z 34002KT 32/20 A2977 RMK A01 T03210197  RH  048%=      5-min Rain = 0
KLE1 151957Z 05001KT 32/19 A2977 RMK A01 T03240187  RH  044%=      5-min Rain = 0
KLE1 151958Z 02001KT 33/19 A2977 RMK A01 T03260192  RH  045%=      5-min Rain = 0
KLE1 151959Z 27003KT 33/20 A2977 RMK A01 T03290196  RH  046%=      5-min Rain = 0
KLE1 152000Z 28006KT 33/19 A2977 RMK A01 T03300193  RH  045%=      5-min Rain = 0
KLE1 152001Z 31006KT 33/19 A2977 RMK A01 T03290189  RH  043%=      5-min Rain = 0
KLE1 152002Z 34005KT 33/19 A2977 RMK A01 T03250185  RH  043%=      5-min Rain = 0
KLE1 152003Z 34001KT 32/18 A2977 RMK A01 T03230183  RH  043%=      5-min Rain = 0
KLE1 152004Z 31002KT 32/18 A2977 RMK A01 T03210182  RH  044%=      5-min Rain = 0
KLE1 152005Z 27002KT 32/19 A2977 RMK A01 T03210185  RH  045%=      5-min Rain = 0
KLE1 152006Z 25002KT 32/18 A2977 RMK A01 T03210181  RH  043%=      5-min Rain = 0
KLE1 152007Z 23001KT 32/19 A2977 RMK A01 T03210185  RH  044%=      5-min Rain = 0
KLE1 152008Z 23000KT 32/19 A2977 RMK A01 T03220190  RH  046%=      5-min Rain = 0
KLE1 152009Z 36000KT 32/19 A2977 RMK A01 T03240188  RH  045%=      5-min Rain = 0
KLE1 152010Z 33001KT 33/19 A2977 RMK A01 T03250188  RH  044%=      5-min Rain = 0
KLE1 152011Z 24000KT 33/19 A2977 RMK A01 T03260191  RH  045%=      5-min Rain = 0
KLE1 152012Z 24002KT 33/19 A2977 RMK A01 T03290190  RH  044%=      5-min Rain = 0
KLE1 152013Z 26001KT 33/20 A2977 RMK A01 T03300195  RH  045%=      5-min Rain = 0
KLE1 152014Z 16000KT 33/19 A2977 RMK A01 T03320190  RH  043%=      5-min Rain = 0
KLE1 152015Z 06003KT 33/19 A2977 RMK A01 T03320192  RH  044%=      5-min Rain = 0
KLE1 152016Z 06002KT 33/19 A2977 RMK A01 T03320194  RH  044%=      5-min Rain = 0
KLE1 152017Z 02003KT 33/19 A2977 RMK A01 T03320190  RH  043%=      5-min Rain = 0
KLE1 152018Z 02004KT 33/19 A2977 RMK A01 T03310190  RH  043%=      5-min Rain = 0
KLE1 152019Z 03003KT 33/20 A2977 RMK A01 T03310196  RH  045%=      5-min Rain = 0
KLE1 152020Z 02001KT 33/18 A2977 RMK A01 T03310184  RH  042%=      5-min Rain = 0
KLE1 152021Z 11002KT 33/19 A2977 RMK A01 T03310190  RH  043%=      5-min Rain = 0
KLE1 152022Z 05003KT 33/19 A2977 RMK A01 T03310189  RH  043%=      5-min Rain = 0
KLE1 152023Z 17001KT 33/19 A2977 RMK A01 T03310186  RH  042%=      5-min Rain = 0
KLE1 152024Z 12001KT 33/19 A2977 RMK A01 T03290188  RH  043%=      5-min Rain = 0
KLE1 152025Z 06003KT 33/19 A2977 RMK A01 T03290188  RH  044%=      5-min Rain = 0
KLE1 152026Z 04003KT 33/19 A2976 RMK A01 T03290191  RH  044%=      5-min Rain = 0
KLE1 152027Z 02005KT 33/20 A2976 RMK A01 T03300201  RH  047%=      5-min Rain = 0
KLE1 152028Z 02007KT 33/20 A2976 RMK A01 T03330196  RH  044%=      5-min Rain = 0
KLE1 152029Z 04007KT 33/20 A2976 RMK A01 T03340196  RH  044%=      5-min Rain = 0
KLE1 152030Z 03008KT 33/19 A2976 RMK A01 T03330193  RH  044%=      5-min Rain = 0
KLE1 152031Z 00008KT 33/19 A2976 RMK A01 T03310192  RH  044%=      5-min Rain = 0
KLE1 152032Z 34006KT 33/19 A2976 RMK A01 T03310191  RH  044%=      5-min Rain = 0
KLE1 152033Z 31004KT 33/19 A2976 RMK A01 T03300191  RH  044%=      5-min Rain = 0
KLE1 152034Z 29005KT 33/19 A2976 RMK A01 T03300189  RH  043%=      5-min Rain = 0
KLE1 152035Z 28003KT 33/19 A2976 RMK A01 T03290187  RH  043%=      5-min Rain = 0
KLE1 152036Z 29002KT 33/19 A2976 RMK A01 T03290192  RH  044%=      5-min Rain = 0
KLE1 152037Z 31002KT 33/19 A2976 RMK A01 T03290186  RH  043%=      5-min Rain = 0
KLE1 152038Z 00005KT 33/19 A2976 RMK A01 T03310194  RH  045%=      5-min Rain = 0
KLE1 152039Z 36009KT 33/19 A2976 RMK A01 T03330194  RH  044%=      5-min Rain = 0
KLE1 152040Z 35007KT 33/20 A2976 RMK A01 T03340195  RH  044%=      5-min Rain = 0
KLE1 152041Z 33006KT 33/19 A2976 RMK A01 T03340187  RH  042%=      5-min Rain = 0
KLE1 152042Z 33006KT 33/20 A2976 RMK A01 T03340195  RH  044%=      5-min Rain = 0
KLE1 152043Z 33006KT 34/19 A2976 RMK A01 T03350191  RH  043%=      5-min Rain = 0
KLE1 152044Z 33005KT 34/19 A2976 RMK A01 T03350189  RH  042%=      5-min Rain = 0
KLE1 152045Z 33006KT 33/19 A2976 RMK A01 T03340192  RH  043%=      5-min Rain = 0
KLE1 152046Z 34005KT 34/19 A2976 RMK A01 T03350193  RH  043%=      5-min Rain = 0
KLE1 152047Z 35002KT 34/19 A2976 RMK A01 T03350193  RH  043%=      5-min Rain = 0
KLE1 152048Z 08005G10KT 34/20 A2976 RMK A01 T03350196  RH  044%=      5-min Rain = 0
KLE1 152049Z 09008KT 34/19 A2976 RMK A01 T03360190  RH  042%=      5-min Rain = 0
KLE1 152050Z 09005KT 34/19 A2976 RMK A01 T03350190  RH  042%=      5-min Rain = 0
KLE1 152051Z 08008KT 33/19 A2976 RMK A01 T03340191  RH  043%=      5-min Rain = 0
KLE1 152052Z 09008KT 33/19 A2976 RMK A01 T03340189  RH  042%=      5-min Rain = 0
KLE1 152053Z 09005KT 33/19 A2976 RMK A01 T03340191  RH  043%=      5-min Rain = 0
KLE1 152054Z 06007KT 33/20 A2976 RMK A01 T03330199  RH  045%=      5-min Rain = 0
KLE1 152055Z 07007KT 33/19 A2976 RMK A01 T03340192  RH  043%=      5-min Rain = 0
KLE1 152056Z 07005KT 33/19 A2976 RMK A01 T03340191  RH  043%=      5-min Rain = 0
KLE1 152057Z 05006KT 33/20 A2976 RMK A01 T03330198  RH  045%=      5-min Rain = 0
KLE1 152058Z 02010KT 34/20 A2976 RMK A01 T03350199  RH  045%=      5-min Rain = 0
KLE1 152059Z 02006KT 34/19 A2976 RMK A01 T03350189  RH  042%=      5-min Rain = 0
KLE1 152100Z 01006KT 33/19 A2976 RMK A01 T03320192  RH  044%=      5-min Rain = 0
KLE1 152101Z 35008KT 33/19 A2976 RMK A01 T03320192  RH  044%=      5-min Rain = 0
KLE1 152102Z 35007KT 33/19 A2976 RMK A01 T03320192  RH  044%=      5-min Rain = 0
KLE1 152103Z 35007KT 33/20 A2976 RMK A01 T03310195  RH  045%=      5-min Rain = 0
KLE1 152104Z 02009KT 33/20 A2976 RMK A01 T03330196  RH  044%=      5-min Rain = 0
KLE1 152105Z 02008KT 34/20 A2976 RMK A01 T03350199  RH  045%=      5-min Rain = 0
KLE1 152106Z 04006KT 34/20 A2976 RMK A01 T03360199  RH  045%=      5-min Rain = 0
KLE1 152107Z 08009KT 34/20 A2976 RMK A01 T03350198  RH  045%=      5-min Rain = 0
KLE1 152108Z 07008KT 33/19 A2976 RMK A01 T03340193  RH  043%=      5-min Rain = 0
KLE1 152109Z 04010KT 33/20 A2976 RMK A01 T03330201  RH  046%=      5-min Rain = 0
KLE1 152110Z 06009KT 33/19 A2976 RMK A01 T03340193  RH  043%=      5-min Rain = 0
KLE1 152111Z 08006KT 33/19 A2976 RMK A01 T03310191  RH  044%=      5-min Rain = 0
KLE1 152112Z 07009KT 33/19 A2976 RMK A01 T03300194  RH  045%=      5-min Rain = 0
KLE1 152113Z 06006KT 33/19 A2976 RMK A01 T03290189  RH  043%=      5-min Rain = 0
KLE1 152114Z 04004KT 33/19 A2976 RMK A01 T03280189  RH  044%=      5-min Rain = 0
KLE1 152115Z 04008KT 33/19 A2975 RMK A01 T03280194  RH  045%=      5-min Rain = 0
KLE1 152116Z 06007KT 33/19 A2975 RMK A01 T03290190  RH  044%=      5-min Rain = 0
KLE1 152117Z 06009KT 33/19 A2975 RMK A01 T03290191  RH  044%=      5-min Rain = 0
KLE1 152118Z 05010KT 33/19 A2975 RMK A01 T03290193  RH  045%=      5-min Rain = 0
KLE1 152119Z 06011KT 33/19 A2976 RMK A01 T03280192  RH  045%=      5-min Rain = 0
KLE1 152120Z 05010KT 33/19 A2976 RMK A01 T03270192  RH  045%=      5-min Rain = 0
KLE1 152121Z 06008KT 33/19 A2976 RMK A01 T03250187  RH  044%=      5-min Rain = 0
KLE1 152122Z 05006KT 32/19 A2976 RMK A01 T03230189  RH  045%=      5-min Rain = 0
KLE1 152123Z 05003KT 32/19 A2976 RMK A01 T03210186  RH  045%=      5-min Rain = 0
KLE1 152124Z 04003KT 32/19 A2976 RMK A01 T03200185  RH  045%=      5-min Rain = 0
KLE1 152125Z 05005KT 32/19 A2976 RMK A01 T03200192  RH  047%=      5-min Rain = 0
KLE1 152126Z 07007KT 32/19 A2976 RMK A01 T03200190  RH  046%=      5-min Rain = 0
KLE1 152127Z 07008KT 32/19 A2975 RMK A01 T03200188  RH  046%=      5-min Rain = 0
KLE1 152128Z 07009KT 32/19 A2976 RMK A01 T03210189  RH  046%=      5-min Rain = 0
KLE1 152129Z 07007KT 32/19 A2976 RMK A01 T03220192  RH  046%=      5-min Rain = 0
KLE1 152130Z 07007KT 32/19 A2975 RMK A01 T03230190  RH  045%=      5-min Rain = 0
KLE1 152131Z 06009KT 32/20 A2975 RMK A01 T03240197  RH  047%=      5-min Rain = 0
KLE1 152132Z 06010KT 33/20 A2975 RMK A01 T03250196  RH  047%=      5-min Rain = 0
KLE1 152133Z 07012KT 33/19 A2975 RMK A01 T03260193  RH  046%=      5-min Rain = 0
KLE1 152134Z 07011KT 33/19 A2975 RMK A01 T03260192  RH  045%=      5-min Rain = 0
KLE1 152135Z 06011KT 33/20 A2975 RMK A01 T03270195  RH  046%=      5-min Rain = 0
KLE1 152136Z 06010KT 33/19 A2975 RMK A01 T03280194  RH  045%=      5-min Rain = 0
KLE1 152137Z 06012KT 33/19 A2975 RMK A01 T03280194  RH  045%=      5-min Rain = 0
KLE1 152138Z 06008KT 33/20 A2975 RMK A01 T03280196  RH  046%=      5-min Rain = 0
KLE1 152139Z 06011KT 33/20 A2975 RMK A01 T03290196  RH  046%=      5-min Rain = 0
KLE1 152140Z 05012KT 33/20 A2975 RMK A01 T03290195  RH  045%=      5-min Rain = 0
KLE1 152141Z 06012KT 33/19 A2975 RMK A01 T03280194  RH  045%=      5-min Rain = 0
KLE1 152142Z 06010KT 33/20 A2975 RMK A01 T03290195  RH  045%=      5-min Rain = 0
KLE1 152143Z 07008KT 33/20 A2975 RMK A01 T03280196  RH  046%=      5-min Rain = 0
KLE1 152144Z 08007KT 33/20 A2975 RMK A01 T03280198  RH  046%=      5-min Rain = 0
KLE1 152145Z 07010KT 33/20 A2974 RMK A01 T03300200  RH  047%=      5-min Rain = 0
KLE1 152146Z 07009KT 33/20 A2974 RMK A01 T03310195  RH  045%=      5-min Rain = 0
KLE1 152147Z 06012KT 33/20 A2974 RMK A01 T03310196  RH  045%=      5-min Rain = 0
KLE1 152148Z 06013KT 33/20 A2974 RMK A01 T03300198  RH  046%=      5-min Rain = 0
KLE1 152149Z 07014KT 33/20 A2974 RMK A01 T03300196  RH  045%=      5-min Rain = 0
KLE1 152150Z 06010KT 33/20 A2974 RMK A01 T03300199  RH  046%=      5-min Rain = 0
KLE1 152151Z 06011KT 33/20 A2974 RMK A01 T03310197  RH  045%=      5-min Rain = 0
KLE1 152152Z 06008KT 33/20 A2974 RMK A01 T03300198  RH  046%=      5-min Rain = 0
KLE1 152153Z 07011KT 33/20 A2974 RMK A01 T03300196  RH  045%=      5-min Rain = 0
KLE1 152154Z 08009KT 33/20 A2974 RMK A01 T03290197  RH  046%=      5-min Rain = 0
KLE1 152155Z 07007KT 33/20 A2974 RMK A01 T03290198  RH  046%=      5-min Rain = 0
KLE1 152156Z 06008KT 33/19 A2974 RMK A01 T03300194  RH  045%=      5-min Rain = 0
KLE1 152157Z 08009KT 33/20 A2974 RMK A01 T03280196  RH  046%=      5-min Rain = 0
KLE1 152158Z 07009KT 33/19 A2973 RMK A01 T03270192  RH  045%=      5-min Rain = 0
KLE1 152159Z 06014KT 33/19 A2974 RMK A01 T03270194  RH  046%=      5-min Rain = 0
KLE1 152200Z 04015KT 33/19 A2974 RMK A01 T03260191  RH  045%=      5-min Rain = 0
KLE1 152201Z 04014KT 32/19 A2974 RMK A01 T03240189  RH  045%=      5-min Rain = 0
KLE1 152202Z 05008KT 32/19 A2974 RMK A01 T03200188  RH  045%=      5-min Rain = 0
KLE1 152203Z 05005KT 32/19 A2974 RMK A01 T03180190  RH  047%=      5-min Rain = 0
KLE1 152204Z 06010KT 32/19 A2974 RMK A01 T03170189  RH  047%=      5-min Rain = 0
KLE1 152205Z 06011KT 32/19 A2974 RMK A01 T03150187  RH  047%=      5-min Rain = 0
KLE1 152206Z 06014KT 32/19 A2974 RMK A01 T03150188  RH  047%=      5-min Rain = 0
KLE1 152207Z 07014KT 32/19 A2974 RMK A01 T03150188  RH  047%=      5-min Rain = 0
KLE1 152208Z 08015KT 32/19 A2974 RMK A01 T03150185  RH  046%=      5-min Rain = 0
KLE1 152209Z 08015KT 32/18 A2974 RMK A01 T03150184  RH  046%=      5-min Rain = 0
KLE1 152210Z 07016KT 32/19 A2974 RMK A01 T03160185  RH  046%=      5-min Rain = 0
KLE1 152211Z 07015KT 32/18 A2974 RMK A01 T03160184  RH  046%=      5-min Rain = 0
KLE1 152212Z 08012KT 32/18 A2974 RMK A01 T03150184  RH  046%=      5-min Rain = 0
KLE1 152213Z 07011KT 32/19 A2974 RMK A01 T03150186  RH  046%=      5-min Rain = 0
KLE1 152214Z 07012KT 32/19 A2974 RMK A01 T03150187  RH  047%=      5-min Rain = 0
KLE1 152215Z 07012KT 32/19 A2974 RMK A01 T03150187  RH  047%=      5-min Rain = 0
KLE1 152216Z 05013KT 32/19 A2974 RMK A01 T03160186  RH  046%=      5-min Rain = 0
KLE1 152217Z 06013KT 32/18 A2974 RMK A01 T03150184  RH  046%=      5-min Rain = 0
KLE1 152218Z 05013KT 32/18 A2974 RMK A01 T03150184  RH  046%=      5-min Rain = 0
KLE1 152219Z 05013KT 32/18 A2974 RMK A01 T03150183  RH  045%=      5-min Rain = 0
KLE1 152220Z 06012KT 32/18 A2974 RMK A01 T03150183  RH  045%=      5-min Rain = 0
KLE1 152221Z 05011KT 32/18 A2974 RMK A01 T03150184  RH  046%=      5-min Rain = 0
KLE1 152222Z 05011KT 32/18 A2974 RMK A01 T03150184  RH  046%=      5-min Rain = 0
KLE1 152223Z 05010KT 32/18 A2974 RMK A01 T03150184  RH  046%=      5-min Rain = 0
KLE1 152224Z 06012KT 32/18 A2975 RMK A01 T03150181  RH  045%=      5-min Rain = 0
KLE1 152225Z 06012KT 32/18 A2975 RMK A01 T03150180  RH  045%=      5-min Rain = 0
KLE1 152226Z 05009KT 31/18 A2975 RMK A01 T03140180  RH  045%=      5-min Rain = 0
KLE1 152227Z 06010KT 31/18 A2975 RMK A01 T03130178  RH  045%=      5-min Rain = 0
KLE1 152228Z 07010KT 31/18 A2975 RMK A01 T03130180  RH  045%=      5-min Rain = 0
KLE1 152229Z 07011KT 31/18 A2975 RMK A01 T03130180  RH  045%=      5-min Rain = 0
KLE1 152230Z 06013KT 31/18 A2975 RMK A01 T03130180  RH  045%=      5-min Rain = 0
KLE1 152231Z 06013KT 31/18 A2975 RMK A01 T03120177  RH  045%=      5-min Rain = 0
KLE1 152232Z 06013KT 31/18 A2975 RMK A01 T03110176  RH  044%=      5-min Rain = 0
KLE1 152233Z 06011KT 31/18 A2975 RMK A01 T03110178  RH  045%=      5-min Rain = 0
KLE1 152234Z 07011KT 31/18 A2975 RMK A01 T03100175  RH  044%=      5-min Rain = 0
KLE1 152235Z 07012KT 31/17 A2975 RMK A01 T03100172  RH  044%=      5-min Rain = 0
KLE1 152236Z 06012KT 31/17 A2975 RMK A01 T03100174  RH  044%=      5-min Rain = 0
KLE1 152237Z 07012KT 31/17 A2975 RMK A01 T03100174  RH  044%=      5-min Rain = 0
KLE1 152238Z 06011KT 31/17 A2975 RMK A01 T03100174  RH  044%=      5-min Rain = 0
KLE1 152239Z 06010KT 31/18 A2975 RMK A01 T03100176  RH  045%=      5-min Rain = 0
KLE1 152240Z 06010KT 31/18 A2975 RMK A01 T03090175  RH  045%=      5-min Rain = 0
KLE1 152241Z 06011KT 31/18 A2975 RMK A01 T03090176  RH  045%=      5-min Rain = 0
KLE1 152242Z 05010KT 31/18 A2975 RMK A01 T03090176  RH  045%=      5-min Rain = 0
KLE1 152243Z 05010KT 31/17 A2975 RMK A01 T03080173  RH  044%=      5-min Rain = 0
KLE1 152244Z 05010KT 31/17 A2975 RMK A01 T03090173  RH  044%=      5-min Rain = 0
KLE1 152245Z 03009KT 31/18 A2975 RMK A01 T03080175  RH  045%=      5-min Rain = 0
KLE1 152246Z 03009KT 31/17 A2976 RMK A01 T03080172  RH  044%=      5-min Rain = 0
KLE1 152247Z 04008KT 31/17 A2976 RMK A01 T03080173  RH  044%=      5-min Rain = 0
KLE1 152248Z 04008KT 31/17 A2976 RMK A01 T03080171  RH  044%=      5-min Rain = 0
KLE1 152249Z 05008KT 31/17 A2975 RMK A01 T03080171  RH  044%=      5-min Rain = 0
KLE1 152250Z 05009KT 31/17 A2975 RMK A01 T03080171  RH  044%=      5-min Rain = 0
KLE1 152251Z 05009KT 31/17 A2975 RMK A01 T03080170  RH  044%=      5-min Rain = 0
KLE1 152252Z 05009KT 31/17 A2975 RMK A01 T03070169  RH  044%=      5-min Rain = 0
KLE1 152253Z 05008KT 31/17 A2975 RMK A01 T03060168  RH  043%=      5-min Rain = 0
KLE1 152254Z 05010KT 31/17 A2975 RMK A01 T03060168  RH  043%=      5-min Rain = 0
KLE1 152255Z 04008KT 31/17 A2975 RMK A01 T03060168  RH  044%=      5-min Rain = 0
KLE1 152256Z 04009KT 31/17 A2975 RMK A01 T03050171  RH  045%=      5-min Rain = 0
KLE1 152257Z 03009KT 31/17 A2975 RMK A01 T03050169  RH  044%=      5-min Rain = 0
KLE1 152258Z 04009KT 31/17 A2975 RMK A01 T03050167  RH  044%=      5-min Rain = 0
KLE1 152259Z 04009KT 31/17 A2974 RMK A01 T03050169  RH  044%=      5-min Rain = 0
KLE1 152300Z 04011KT 31/17 A2974 RMK A01 T03050168  RH  044%=      5-min Rain = 0
KLE1 152301Z 04010KT 30/17 A2974 RMK A01 T03040167  RH  044%=      5-min Rain = 0
KLE1 152302Z 04010KT 30/17 A2974 RMK A01 T03040169  RH  044%=      5-min Rain = 0
KLE1 152303Z 04009KT 30/17 A2974 RMK A01 T03040167  RH  044%=      5-min Rain = 0
KLE1 152304Z 04009KT 30/17 A2974 RMK A01 T03040169  RH  044%=      5-min Rain = 0
KLE1 152305Z 04008KT 30/17 A2974 RMK A01 T03040170  RH  045%=      5-min Rain = 0
KLE1 152306Z 04008KT 30/17 A2975 RMK A01 T03030171  RH  045%=      5-min Rain = 0
KLE1 152307Z 04008KT 30/17 A2975 RMK A01 T03030171  RH  045%=      5-min Rain = 0
KLE1 152308Z 04009KT 30/17 A2974 RMK A01 T03030169  RH  045%=      5-min Rain = 0
KLE1 152309Z 04008KT 30/17 A2974 RMK A01 T03030170  RH  045%=      5-min Rain = 0
KLE1 152310Z 04008KT 30/17 A2974 RMK A01 T03030171  RH  045%=      5-min Rain = 0
KLE1 152311Z 03007KT 30/17 A2974 RMK A01 T03030171  RH  045%=      5-min Rain = 0
KLE1 152312Z 03008KT 30/17 A2974 RMK A01 T03020173  RH  046%=      5-min Rain = 0
KLE1 152313Z 04008KT 30/17 A2974 RMK A01 T03020171  RH  045%=      5-min Rain = 0
KLE1 152314Z 04008KT 30/17 A2974 RMK A01 T03020172  RH  046%=      5-min Rain = 0
KLE1 152315Z 04008KT 30/17 A2974 RMK A01 T03020171  RH  045%=      5-min Rain = 0
KLE1 152316Z 04008KT 30/17 A2974 RMK A01 T03020172  RH  046%=      5-min Rain = 0
KLE1 152317Z 04007KT 30/17 A2973 RMK A01 T03020172  RH  046%=      5-min Rain = 0
KLE1 152318Z 04008KT 30/17 A2973 RMK A01 T03010173  RH  046%=      5-min Rain = 0
KLE1 152319Z 04008KT 30/17 A2973 RMK A01 T03010172  RH  046%=      5-min Rain = 0
KLE1 152320Z 04007KT 30/17 A2973 RMK A01 T03010173  RH  046%=      5-min Rain = 0
KLE1 152321Z 03007KT 30/17 A2973 RMK A01 T03000173  RH  046%=      5-min Rain = 0
KLE1 152322Z 02007KT 30/17 A2973 RMK A01 T03000173  RH  046%=      5-min Rain = 0
KLE1 152323Z 02006KT 30/17 A2974 RMK A01 T03000172  RH  046%=      5-min Rain = 0
KLE1 152324Z 01006KT 30/17 A2974 RMK A01 T03000174  RH  047%=      5-min Rain = 0
KLE1 152325Z 36005KT 30/18 A2974 RMK A01 T02990175  RH  047%=      5-min Rain = 0
KLE1 152326Z 35006KT 30/18 A2975 RMK A01 T02990176  RH  048%=      5-min Rain = 0
KLE1 152327Z 33006KT 30/18 A2975 RMK A01 T02990177  RH  048%=      5-min Rain = 0
KLE1 152328Z 32007KT 30/18 A2975 RMK A01 T02980177  RH  048%=      5-min Rain = 0
KLE1 152329Z 30009KT 30/18 A2976 RMK A01 T02970178  RH  049%=      5-min Rain = 0
KLE1 152330Z 29011KT 30/18 A2976 RMK A01 T02970177  RH  049%=      5-min Rain = 0
KLE1 152331Z 29011KT 30/18 A2977 RMK A01 T02960180  RH  050%=      5-min Rain = 0
KLE1 152332Z 28013KT 30/18 A2977 RMK A01 T02950183  RH  051%=      5-min Rain = 0
KLE1 152333Z 28013KT 30/18 A2978 RMK A01 T02950182  RH  051%=      5-min Rain = 0
KLE1 152334Z 29013KT 29/18 A2978 RMK A01 T02940182  RH  051%=      5-min Rain = 0
KLE1 152335Z 29011KT 29/18 A2978 RMK A01 T02940184  RH  051%=      5-min Rain = 0
KLE1 152336Z 29011KT 29/18 A2978 RMK A01 T02940184  RH  052%=      5-min Rain = 0
KLE1 152337Z 29010KT 29/18 A2978 RMK A01 T02930183  RH  052%=      5-min Rain = 0
KLE1 152338Z 29009KT 29/19 A2978 RMK A01 T02930185  RH  052%=      5-min Rain = 0
KLE1 152339Z 30008KT 29/19 A2978 RMK A01 T02930186  RH  053%=      5-min Rain = 0
KLE1 152340Z 30009KT 29/19 A2978 RMK A01 T02930188  RH  053%=      5-min Rain = 0
KLE1 152341Z 30009KT 29/19 A2978 RMK A01 T02920189  RH  054%=      5-min Rain = 0
KLE1 152342Z 30009KT 29/19 A2978 RMK A01 T02910190  RH  054%=      5-min Rain = 0
KLE1 152343Z 30010KT 29/19 A2978 RMK A01 T02910190  RH  055%=      5-min Rain = 0
KLE1 152344Z 31011KT 29/19 A2978 RMK A01 T02910191  RH  055%=      5-min Rain = 0
KLE1 152345Z 30011KT 29/19 A2979 RMK A01 T02910192  RH  055%=      5-min Rain = 0
KLE1 152346Z 31011KT 29/19 A2979 RMK A01 T02910192  RH  055%=      5-min Rain = 0
KLE1 152347Z 31013KT 29/19 A2979 RMK A01 T02910192  RH  055%=      5-min Rain = 0
KLE1 152348Z 31014KT 29/19 A2979 RMK A01 T02910192  RH  055%=      5-min Rain = 0
KLE1 152349Z 31013KT 29/19 A2979 RMK A01 T02910191  RH  055%=      5-min Rain = 0
KLE1 152350Z 31015KT 29/19 A2979 RMK A01 T02910190  RH  055%=      5-min Rain = 0
KLE1 152351Z 31016KT 29/19 A2979 RMK A01 T02910189  RH  054%=      5-min Rain = 0
KLE1 152352Z 31015KT 29/19 A2979 RMK A01 T02920190  RH  054%=      5-min Rain = 0
KLE1 152353Z 31015KT 29/19 A2979 RMK A01 T02910191  RH  055%=      5-min Rain = 0
KLE1 152354Z 31016KT 29/19 A2979 RMK A01 T02910193  RH  056%=      5-min Rain = 0
KLE1 152355Z 30015KT 29/20 A298 RMK A01 T02890195  RH  057%=      5-min Rain = 0
KLE1 152356Z 30016KT 29/20 A298 RMK A01 T02870195  RH  058%=      5-min Rain = 0
KLE1 152357Z 30015KT 29/20 A298 RMK A01 T02850196  RH  059%=      5-min Rain = 0
KLE1 152358Z 30017KT 28/20 A2981 RMK A01 T02830198  RH  060%=      5-min Rain = 0
KLE1 152359Z 29018KT 28/20 A2981 RMK A01 T02820198  RH  060%=      5-min Rain = 0
KLE1 160000Z 29018KT 28/20 A2982 RMK A01 T02800199  RH  061%=      5-min Rain = 0
KLE1 160001Z 30020KT 28/20 A2982 RMK A01 T02780201  RH  063%=      5-min Rain = 0
KLE1 160002Z 29024KT 28/20 A2983 RMK A01 T02760199  RH  063%=      5-min Rain = 0
KLE1 160003Z 30026G31KT 27/18 A2983 RMK A01 T02740178  RH  056%=      5-min Rain = 0
KLE1 160004Z 30025G32KT 27/17 A2983 RMK A01 T02720173  RH  055%=      5-min Rain = 0
KLE1 160005Z 29026KT 27/17 A2983 RMK A01 T02680170  RH  055%=      5-min Rain = 0
KLE1 160006Z 29027KT 26/17 A2983 RMK A01 T02610168  RH  056%=      5-min Rain = 0
KLE1 160007Z 29029G35KT 26/17 A2983 RMK A01 T02560166  RH  057%=      5-min Rain = 0
KLE1 160008Z 30031KT 25/16 A2983 RMK A01 T02540163  RH  057%=      5-min Rain = 0
KLE1 160009Z 30029KT 25/16 A2983 RMK A01 T02540161  RH  056%=      5-min Rain = 0
KLE1 160010Z 30029KT 25/16 A2984 RMK A01 T02520157  RH  056%=      5-min Rain = 0
KLE1 160011Z 30031KT 25/15 A2984 RMK A01 T02500151  RH  054%=      5-min Rain = 0
KLE1 160012Z 30030KT 25/15 A2984 RMK A01 T02490147  RH  053%=      5-min Rain = 0
KLE1 160013Z 30029KT 25/15 A2984 RMK A01 T02490149  RH  054%=      5-min Rain = 0
KLE1 160014Z 30023KT 25/15 A2985 RMK A01 T02510149  RH  053%=      5-min Rain = 0
KLE1 160015Z 30021KT 25/16 A2985 RMK A01 T02510156  RH  056%=      5-min Rain = 0
KLE1 160016Z 30020KT 25/15 A2985 RMK A01 T02480151  RH  055%=      5-min Rain = 0
KLE1 160017Z 31026KT 25/14 A2985 RMK A01 T02490144  RH  052%=      5-min Rain = 0
KLE1 160018Z 30028G36KT 26/12 A2985 RMK A01 T02570124  RH  044%=      5-min Rain = 0
KLE1 160019Z 27028KT 26/13 A2985 RMK A01 T02630128  RH  043%=      5-min Rain = 0
KLE1 160020Z 28029G37KT 26/12 A2987 RMK A01 T02640120  RH  041%=      5-min Rain = 0
KLE1 160021Z 29038KT 26/13 A2987 RMK A01 T02620129  RH  044%=      5-min Rain = 0
KLE1 160022Z 29033KT 25/13 A2988 RMK A01 T02500134  RH  048%=      5-min Rain = 0
KLE1 160023Z 29033G40KT 24/14 A2988 RMK A01 T02410140  RH  053%=      5-min Rain = 0
KLE1 160024Z 29036G44KT 24/14 A2987 RMK A01 T02350140  RH  055%=      5-min Rain = 0
KLE1 160025Z 28039G44KT 23/13 A2987 RMK A01 T02330130  RH  052%=      5-min Rain = 0
KLE1 160026Z 29034G45KT 23/13 A2987 RMK A01 T02340133  RH  053%=      5-min Rain = 0
KLE1 160027Z 29037KT 23/14 A2987 RMK A01 T02310136  RH  055%=      5-min Rain = 0
KLE1 160028Z 29037G49KT 23/13 A2988 RMK A01 T02280130  RH  054%=      5-min Rain = 0
KLE1 160029Z 28028KT 23/13 A2988 RMK A01 T02310127  RH  052%=      5-min Rain = 0
KLE1 160030Z 29032G39KT 23/14 A2988 RMK A01 T02280135  RH  056%=      5-min Rain = 0
KLE1 160031Z 29031G37KT 22/14 A2989 RMK A01 T02180144  RH  063%=      5-min Rain = 0.01
KLE1 160032Z 28030G35KT 21/14 A2989 RMK A01 T02090143  RH  066%=      5-min Rain = 0
KLE1 160033Z 27026G32KT 21/14 A299 RMK A01 T02110139  RH  063%=      5-min Rain = 0
KLE1 160034Z 28025KT 21/14 A299 RMK A01 T02130142  RH  064%=      5-min Rain = 0
KLE1 160035Z 28024KT 21/14 A299 RMK A01 T02110144  RH  065%=      5-min Rain = 0
KLE1 160036Z 28022KT 21/14 A299 RMK A01 T02090144  RH  066%=      5-min Rain = 0
KLE1 160037Z 28021KT 21/15 A299 RMK A01 T02050146  RH  069%=      5-min Rain = 0
KLE1 160038Z 28021KT 20/15 A299 RMK A01 T02010147  RH  071%=      5-min Rain = 0
KLE1 160039Z 28024KT 20/15 A299 RMK A01 T01980150  RH  074%=      5-min Rain = 0.01
KLE1 160040Z 28024KT 20/15 A299 RMK A01 T01960151  RH  075%=      5-min Rain = 0
KLE1 160041Z 28023KT 20/15 A299 RMK A01 T01960150  RH  075%=      5-min Rain = 0
KLE1 160042Z 28020KT 20/15 A299 RMK A01 T01980148  RH  073%=      5-min Rain = 0
KLE1 160043Z 28020G25KT 20/15 A2989 RMK A01 T01990150  RH  073%=      5-min Rain = 0
KLE1 160044Z 29020KT 20/15 A2989 RMK A01 T01980149  RH  073%=      5-min Rain = 0
KLE1 160045Z 29019KT 20/15 A2989 RMK A01 T01990147  RH  072%=      5-min Rain = 0
KLE1 160046Z 30020KT 20/15 A2989 RMK A01 T02010147  RH  071%=      5-min Rain = 0
KLE1 160047Z 30015KT 20/15 A2989 RMK A01 T02020146  RH  070%=      5-min Rain = 0
KLE1 160048Z 31011KT 20/15 A2989 RMK A01 T02040146  RH  069%=      5-min Rain = 0
KLE1 160049Z 30008KT 21/15 A2988 RMK A01 T02060145  RH  068%=      5-min Rain = 0
KLE1 160050Z 29008KT 21/14 A2988 RMK A01 T02080140  RH  065%=      5-min Rain = 0
KLE1 160051Z 28008KT 21/14 A2989 RMK A01 T02120142  RH  064%=      5-min Rain = 0
KLE1 160052Z 28008KT 21/15 A2989 RMK A01 T02130150  RH  067%=      5-min Rain = 0
KLE1 160053Z 27006KT 21/15 A2989 RMK A01 T02120154  RH  069%=      5-min Rain = 0
KLE1 160054Z 28007KT 21/16 A2989 RMK A01 T02110158  RH  072%=      5-min Rain = 0.01
KLE1 160055Z 28006KT 21/16 A2989 RMK A01 T02080160  RH  074%=      5-min Rain = 0
KLE1 160056Z 26006KT 21/15 A2988 RMK A01 T02070153  RH  071%=      5-min Rain = 0
KLE1 160057Z 25007KT 21/14 A2988 RMK A01 T02100138  RH  064%=      5-min Rain = 0
KLE1 160058Z 29008KT 22/14 A2989 RMK A01 T02160143  RH  063%=      5-min Rain = 0
KLE1 160059Z 30009KT 22/16 A2989 RMK A01 T02190158  RH  069%=      5-min Rain = 0
KLE1 160100Z 31010KT 22/16 A2989 RMK A01 T02160159  RH  070%=      5-min Rain = 0
KLE1 160101Z 30009KT 21/15 A2988 RMK A01 T02140154  RH  068%=      5-min Rain = 0
KLE1 160102Z 29008KT 22/15 A2988 RMK A01 T02150147  RH  065%=      5-min Rain = 0
KLE1 160103Z 27004KT 22/15 A2987 RMK A01 T02170145  RH  064%=      5-min Rain = 0
KLE1 160104Z 25003KT 22/15 A2986 RMK A01 T02200148  RH  064%=      5-min Rain = 0
KLE1 160105Z 26001KT 22/14 A2986 RMK A01 T02200142  RH  061%=      5-min Rain = 0
KLE1 160106Z 11000KT 22/13 A2985 RMK A01 T02230128  RH  055%=      5-min Rain = 0
KLE1 160107Z 09003KT 23/12 A2983 RMK A01 T02300119  RH  050%=      5-min Rain = 0
KLE1 160108Z 08004KT 24/15 A2982 RMK A01 T02360146  RH  057%=      5-min Rain = 0
KLE1 160109Z 07004KT 23/15 A2982 RMK A01 T02330154  RH  061%=      5-min Rain = 0
KLE1 160110Z 06003KT 23/14 A2982 RMK A01 T02290142  RH  058%=      5-min Rain = 0
KLE1 160111Z 05003KT 23/12 A2982 RMK A01 T02300118  RH  049%=      5-min Rain = 0
KLE1 160112Z 03004KT 24/10 A2982 RMK A01 T02400102  RH  042%=      5-min Rain = 0
KLE1 160113Z 03005KT 25/12 A2981 RMK A01 T02490118  RH  044%=      5-min Rain = 0
KLE1 160114Z 00008KT 25/15 A2981 RMK A01 T02480146  RH  053%=      5-min Rain = 0
KLE1 160115Z 36011KT 24/16 A2981 RMK A01 T02400159  RH  061%=      5-min Rain = 0
KLE1 160116Z 00012KT 23/16 A2981 RMK A01 T02330155  RH  062%=      5-min Rain = 0
KLE1 160117Z 01012KT 23/15 A2981 RMK A01 T02290153  RH  062%=      5-min Rain = 0
KLE1 160118Z 01011KT 23/16 A2981 RMK A01 T02260158  RH  065%=      5-min Rain = 0
KLE1 160119Z 35014KT 22/16 A2982 RMK A01 T02230160  RH  067%=      5-min Rain = 0
KLE1 160120Z 35016KT 22/16 A2981 RMK A01 T02220158  RH  067%=      5-min Rain = 0
KLE1 160121Z 36016KT 23/12 A298 RMK A01 T02260122  RH  052%=      5-min Rain = 0
KLE1 160122Z 01016KT 24/12 A2979 RMK A01 T02400119  RH  047%=      5-min Rain = 0
KLE1 160123Z 35013G20KT 24/13 A298 RMK A01 T02440132  RH  050%=      5-min Rain = 0
KLE1 160124Z 33027G33KT 24/14 A2982 RMK A01 T02370144  RH  056%=      5-min Rain = 0
KLE1 160125Z 34028G33KT 23/15 A2982 RMK A01 T02270148  RH  061%=      5-min Rain = 0
KLE1 160126Z 35026KT 22/15 A298 RMK A01 T02170148  RH  065%=      5-min Rain = 0
KLE1 160127Z 34030G35KT 21/15 A298 RMK A01 T02130146  RH  066%=      5-min Rain = 0
KLE1 160128Z 35031G38KT 21/14 A298 RMK A01 T02130141  RH  064%=      5-min Rain = 0
KLE1 160129Z 34034G39KT 21/14 A298 RMK A01 T02130140  RH  063%=      5-min Rain = 0
KLE1 160130Z 34036KT 21/14 A2979 RMK A01 T02140138  RH  062%=      5-min Rain = 0
KLE1 160131Z 35035KT 22/14 A2978 RMK A01 T02160137  RH  061%=      5-min Rain = 0
KLE1 160132Z 35034G39KT 22/14 A2978 RMK A01 T02160138  RH  061%=      5-min Rain = 0
KLE1 160133Z 35033KT 22/14 A2978 RMK A01 T02160139  RH  062%=      5-min Rain = 0
KLE1 160134Z 35030KT 22/14 A2978 RMK A01 T02160141  RH  062%=      5-min Rain = 0
KLE1 160135Z 36030KT 22/14 A2978 RMK A01 T02150142  RH  063%=      5-min Rain = 0
KLE1 160136Z 36031G38KT 21/14 A2978 RMK A01 T02140142  RH  063%=      5-min Rain = 0
KLE1 160137Z 35029KT 21/14 A2978 RMK A01 T02140140  RH  063%=      5-min Rain = 0
KLE1 160138Z 36025KT 22/14 A2979 RMK A01 T02160138  RH  061%=      5-min Rain = 0
KLE1 160139Z 36022KT 22/14 A2979 RMK A01 T02180136  RH  059%=      5-min Rain = 0
KLE1 160140Z 00021KT 22/13 A2979 RMK A01 T02200134  RH  058%=      5-min Rain = 0
KLE1 160141Z 01023KT 22/13 A2979 RMK A01 T02230129  RH  055%=      5-min Rain = 0
KLE1 160142Z 01019G24KT 23/13 A2979 RMK A01 T02260126  RH  053%=      5-min Rain = 0
KLE1 160143Z 01017G22KT 23/13 A2979 RMK A01 T02280129  RH  054%=      5-min Rain = 0
KLE1 160144Z 02017G22KT 23/13 A2979 RMK A01 T02270130  RH  054%=      5-min Rain = 0
KLE1 160145Z 03016KT 23/13 A2979 RMK A01 T02270129  RH  054%=      5-min Rain = 0
KLE1 160146Z 03014KT 23/13 A298 RMK A01 T02280126  RH  052%=      5-min Rain = 0
KLE1 160147Z 03013KT 23/13 A298 RMK A01 T02290126  RH  052%=      5-min Rain = 0
KLE1 160148Z 03009KT 23/12 A2981 RMK A01 T02310124  RH  051%=      5-min Rain = 0
KLE1 160149Z 06008KT 23/13 A2981 RMK A01 T02320126  RH  051%=      5-min Rain = 0
KLE1 160150Z 12007KT 23/13 A2982 RMK A01 T02320130  RH  053%=      5-min Rain = 0
KLE1 160151Z 13009KT 23/14 A2982 RMK A01 T02300141  RH  057%=      5-min Rain = 0
KLE1 160152Z 12012KT 23/14 A2982 RMK A01 T02250141  RH  059%=      5-min Rain = 0
KLE1 160153Z 12012KT 22/14 A2982 RMK A01 T02230137  RH  058%=      5-min Rain = 0
KLE1 160154Z 13012KT 22/14 A2981 RMK A01 T02230136  RH  058%=      5-min Rain = 0
KLE1 160155Z 13015G20KT 22/14 A2981 RMK A01 T02240135  RH  057%=      5-min Rain = 0
KLE1 160156Z 13014G19KT 23/13 A2981 RMK A01 T02260130  RH  055%=      5-min Rain = 0
KLE1 160157Z 13012KT 23/13 A298 RMK A01 T02290129  RH  053%=      5-min Rain = 0
KLE1 160158Z 11013KT 23/13 A298 RMK A01 T02300130  RH  053%=      5-min Rain = 0
KLE1 160159Z 11014KT 23/13 A2979 RMK A01 T02300134  RH  055%=      5-min Rain = 0
KLE1 160200Z 11013KT 23/14 A2978 RMK A01 T02290139  RH  057%=      5-min Rain = 0
KLE1 160201Z 09011KT 23/14 A2978 RMK A01 T02260138  RH  057%=      5-min Rain = 0
KLE1 160202Z 09010KT 23/13 A2978 RMK A01 T02250134  RH  056%=      5-min Rain = 0
KLE1 160203Z 08010KT 23/13 A2977 RMK A01 T02250132  RH  055%=      5-min Rain = 0
KLE1 160204Z 07011KT 23/13 A2977 RMK A01 T02260131  RH  055%=      5-min Rain = 0
KLE1 160205Z 07012KT 23/13 A2977 RMK A01 T02270131  RH  055%=      5-min Rain = 0
KLE1 160206Z 07012KT 23/13 A2977 RMK A01 T02270130  RH  054%=      5-min Rain = 0
KLE1 160207Z 06012KT 23/13 A2977 RMK A01 T02280130  RH  054%=      5-min Rain = 0
KLE1 160208Z 06013KT 23/13 A2977 RMK A01 T02280131  RH  054%=      5-min Rain = 0
KLE1 160209Z 06011KT 23/13 A2977 RMK A01 T02280131  RH  054%=      5-min Rain = 0
KLE1 160210Z 07010KT 23/13 A2977 RMK A01 T02280134  RH  056%=      5-min Rain = 0
KLE1 160211Z 07011KT 23/14 A2977 RMK A01 T02260135  RH  056%=      5-min Rain = 0
KLE1 160212Z 07010KT 23/13 A2978 RMK A01 T02250134  RH  056%=      5-min Rain = 0
KLE1 160213Z 08010KT 22/13 A2978 RMK A01 T02240134  RH  057%=      5-min Rain = 0
KLE1 160214Z 09010KT 22/13 A2978 RMK A01 T02240134  RH  057%=      5-min Rain = 0
KLE1 160215Z 09011KT 22/14 A2978 RMK A01 T02240136  RH  057%=      5-min Rain = 0
KLE1 160216Z 09013KT 22/13 A2978 RMK A01 T02240134  RH  057%=      5-min Rain = 0
KLE1 160217Z 09012KT 22/13 A2979 RMK A01 T02240131  RH  056%=      5-min Rain = 0
KLE1 160218Z 09011KT 23/13 A2979 RMK A01 T02260132  RH  055%=      5-min Rain = 0
KLE1 160219Z 09011KT 23/13 A298 RMK A01 T02270131  RH  055%=      5-min Rain = 0
KLE1 160220Z 10011KT 23/13 A298 RMK A01 T02270134  RH  056%=      5-min Rain = 0
KLE1 160221Z 11011KT 23/14 A298 RMK A01 T02260136  RH  057%=      5-min Rain = 0
KLE1 160222Z 11010KT 23/14 A2981 RMK A01 T02250137  RH  058%=      5-min Rain = 0
KLE1 160223Z 11010KT 22/14 A2981 RMK A01 T02230139  RH  059%=      5-min Rain = 0
KLE1 160224Z 11010KT 22/14 A2981 RMK A01 T02220138  RH  059%=      5-min Rain = 0
KLE1 160225Z 10009KT 22/14 A2982 RMK A01 T02220139  RH  059%=      5-min Rain = 0
KLE1 160226Z 09010KT 22/14 A2982 RMK A01 T02220140  RH  060%=      5-min Rain = 0
KLE1 160227Z 08010KT 22/14 A2982 RMK A01 T02210141  RH  060%=      5-min Rain = 0
KLE1 160228Z 08010KT 22/14 A2981 RMK A01 T02200143  RH  062%=      5-min Rain = 0
KLE1 160229Z 09012KT 22/14 A2981 RMK A01 T02180140  RH  061%=      5-min Rain = 0
KLE1 160230Z 09013KT 22/14 A2981 RMK A01 T02200136  RH  059%=      5-min Rain = 0
KLE1 160231Z 09011KT 22/14 A2981 RMK A01 T02210136  RH  058%=      5-min Rain = 0
KLE1 160232Z 09010KT 22/14 A298 RMK A01 T02220138  RH  059%=      5-min Rain = 0
KLE1 160233Z 08010KT 22/14 A298 RMK A01 T02220137  RH  059%=      5-min Rain = 0
KLE1 160234Z 07009KT 22/14 A298 RMK A01 T02220140  RH  060%=      5-min Rain = 0
KLE1 160235Z 07010KT 22/14 A298 RMK A01 T02200140  RH  060%=      5-min Rain = 0
KLE1 160236Z 06010KT 22/14 A298 RMK A01 T02190139  RH  060%=      5-min Rain = 0
KLE1 160237Z 05009KT 22/14 A298 RMK A01 T02190139  RH  060%=      5-min Rain = 0
KLE1 160238Z 05010KT 22/14 A298 RMK A01 T02190139  RH  060%=      5-min Rain = 0
KLE1 160239Z 04010KT 22/14 A298 RMK A01 T02190139  RH  060%=      5-min Rain = 0
KLE1 160240Z 04012KT 22/14 A298 RMK A01 T02190138  RH  060%=      5-min Rain = 0
KLE1 160241Z 04012KT 22/14 A298 RMK A01 T02200137  RH  059%=      5-min Rain = 0
KLE1 160242Z 04011KT 22/13 A2979 RMK A01 T02210133  RH  057%=      5-min Rain = 0
KLE1 160243Z 04010KT 22/13 A2979 RMK A01 T02230132  RH  056%=      5-min Rain = 0
KLE1 160244Z 04009KT 22/13 A2979 RMK A01 T02240133  RH  056%=      5-min Rain = 0
KLE1 160245Z 04010KT 22/14 A2979 RMK A01 T02240135  RH  057%=      5-min Rain = 0
KLE1 160246Z 03012KT 22/13 A2979 RMK A01 T02240133  RH  056%=      5-min Rain = 0
KLE1 160247Z 03012KT 22/13 A2979 RMK A01 T02240132  RH  056%=      5-min Rain = 0
KLE1 160248Z 04012KT 23/13 A2979 RMK A01 T02250133  RH  056%=      5-min Rain = 0
KLE1 160249Z 04012KT 23/13 A2978 RMK A01 T02250134  RH  056%=      5-min Rain = 0
KLE1 160250Z 05013KT 23/13 A2978 RMK A01 T02250134  RH  056%=      5-min Rain = 0
KLE1 160251Z 05012KT 22/14 A2977 RMK A01 T02240137  RH  058%=      5-min Rain = 0
KLE1 160252Z 05013KT 22/14 A2977 RMK A01 T02220137  RH  058%=      5-min Rain = 0
KLE1 160253Z 05013KT 22/14 A2977 RMK A01 T02210138  RH  060%=      5-min Rain = 0
KLE1 160254Z 05012KT 22/14 A2978 RMK A01 T02190141  RH  061%=      5-min Rain = 0
KLE1 160255Z 04011KT 22/14 A2978 RMK A01 T02170140  RH  061%=      5-min Rain = 0
KLE1 160256Z 04012KT 22/14 A2978 RMK A01 T02170140  RH  062%=      5-min Rain = 0
KLE1 160257Z 04013KT 22/14 A2977 RMK A01 T02170135  RH  060%=      5-min Rain = 0
KLE1 160258Z 05014KT 22/13 A2977 RMK A01 T02190132  RH  058%=      5-min Rain = 0
KLE1 160259Z 05013KT 22/13 A2977 RMK A01 T02220132  RH  057%=      5-min Rain = 0
KLE1 160300Z 04014KT 22/13 A2978 RMK A01 T02230134  RH  057%=      5-min Rain = 0
KLE1 160301Z 05014KT 22/13 A2978 RMK A01 T02230133  RH  057%=      5-min Rain = 0
KLE1 160302Z 04012KT 22/13 A2978 RMK A01 T02230134  RH  057%=      5-min Rain = 0
KLE1 160303Z 04012KT 22/14 A2978 RMK A01 T02220135  RH  058%=      5-min Rain = 0
KLE1 160304Z 04012KT 22/13 A2978 RMK A01 T02210134  RH  058%=      5-min Rain = 0
KLE1 160305Z 04012KT 22/14 A2978 RMK A01 T02210136  RH  059%=      5-min Rain = 0
KLE1 160306Z 04013KT 22/14 A2978 RMK A01 T02200135  RH  059%=      5-min Rain = 0
KLE1 160307Z 04013KT 22/14 A2978 RMK A01 T02200136  RH  059%=      5-min Rain = 0
KLE1 160308Z 04013KT 22/14 A2979 RMK A01 T02190136  RH  059%=      5-min Rain = 0
KLE1 160309Z 03013KT 22/14 A2979 RMK A01 T02200135  RH  059%=      5-min Rain = 0
KLE1 160310Z 03012KT 22/14 A2979 RMK A01 T02190135  RH  059%=      5-min Rain = 0
KLE1 160311Z 03012KT 22/13 A2979 RMK A01 T02190134  RH  058%=      5-min Rain = 0
KLE1 160312Z 03012KT 22/13 A2979 RMK A01 T02190134  RH  058%=      5-min Rain = 0
KLE1 160313Z 03010KT 22/13 A2979 RMK A01 T02190134  RH  058%=      5-min Rain = 0
KLE1 160314Z 03011KT 22/13 A2979 RMK A01 T02190134  RH  058%=      5-min Rain = 0
KLE1 160315Z 03012KT 22/13 A2979 RMK A01 T02190133  RH  058%=      5-min Rain = 0
KLE1 160316Z 03011KT 22/13 A298 RMK A01 T02190134  RH  058%=      5-min Rain = 0
KLE1 160317Z 03011KT 22/14 A298 RMK A01 T02190136  RH  059%=      5-min Rain = 0
KLE1 160318Z 03011KT 22/14 A298 RMK A01 T02190135  RH  059%=      5-min Rain = 0
KLE1 160319Z 03010KT 22/13 A298 RMK A01 T02190134  RH  059%=      5-min Rain = 0
KLE1 160320Z 04010KT 22/14 A298 RMK A01 T02180136  RH  060%=      5-min Rain = 0
KLE1 160321Z 04009KT 22/13 A298 RMK A01 T02180134  RH  059%=      5-min Rain = 0
KLE1 160322Z 05009KT 22/13 A298 RMK A01 T02180134  RH  059%=      5-min Rain = 0
KLE1 160323Z 04010KT 22/13 A2979 RMK A01 T02190134  RH  059%=      5-min Rain = 0
KLE1 160324Z 04011KT 22/13 A2979 RMK A01 T02190132  RH  058%=      5-min Rain = 0
KLE1 160325Z 04010KT 22/13 A2979 RMK A01 T02190132  RH  058%=      5-min Rain = 0
KLE1 160326Z 04010KT 22/13 A2979 RMK A01 T02200133  RH  058%=      5-min Rain = 0
KLE1 160327Z 04009KT 22/13 A2979 RMK A01 T02190132  RH  058%=      5-min Rain = 0
KLE1 160328Z 04010KT 22/13 A2979 RMK A01 T02190129  RH  057%=      5-min Rain = 0
KLE1 160329Z 04010KT 22/13 A2979 RMK A01 T02200130  RH  057%=      5-min Rain = 0
KLE1 160330Z 04010KT 22/13 A2979 RMK A01 T02210130  RH  056%=      5-min Rain = 0
KLE1 160331Z 04010KT 22/13 A2978 RMK A01 T02210131  RH  057%=      5-min Rain = 0
KLE1 160332Z 04010KT 22/13 A2978 RMK A01 T02210130  RH  056%=      5-min Rain = 0
KLE1 160333Z 04011KT 22/13 A2978 RMK A01 T02210130  RH  056%=      5-min Rain = 0
KLE1 160334Z 04011KT 22/13 A2978 RMK A01 T02210128  RH  056%=      5-min Rain = 0
KLE1 160335Z 04010KT 22/13 A2978 RMK A01 T02220129  RH  056%=      5-min Rain = 0
KLE1 160336Z 04010KT 22/13 A2978 RMK A01 T02220130  RH  056%=      5-min Rain = 0
KLE1 160337Z 04010KT 22/13 A2978 RMK A01 T02220128  RH  055%=      5-min Rain = 0
KLE1 160338Z 04010KT 22/13 A2978 RMK A01 T02230128  RH  055%=      5-min Rain = 0
KLE1 160339Z 04010KT 22/13 A2978 RMK A01 T02240128  RH  055%=      5-min Rain = 0
KLE1 160340Z 05010KT 22/13 A2978 RMK A01 T02240128  RH  055%=      5-min Rain = 0
KLE1 160341Z 04010KT 22/13 A2978 RMK A01 T02240127  RH  054%=      5-min Rain = 0
KLE1 160342Z 05009KT 23/13 A2978 RMK A01 T02250128  RH  054%=      5-min Rain = 0
KLE1 160343Z 06009KT 22/13 A2978 RMK A01 T02240128  RH  054%=      5-min Rain = 0
KLE1 160344Z 06008KT 22/13 A2978 RMK A01 T02240130  RH  055%=      5-min Rain = 0
KLE1 160345Z 05009KT 22/13 A2978 RMK A01 T02230131  RH  056%=      5-min Rain = 0
KLE1 160346Z 06008KT 22/13 A2979 RMK A01 T02220132  RH  056%=      5-min Rain = 0
KLE1 160347Z 06008KT 22/13 A2979 RMK A01 T02210132  RH  057%=      5-min Rain = 0
KLE1 160348Z 06007KT 22/13 A2979 RMK A01 T02200133  RH  058%=      5-min Rain = 0
KLE1 160349Z 07006KT 22/14 A2979 RMK A01 T02200135  RH  059%=      5-min Rain = 0
KLE1 160350Z 08005KT 22/13 A298 RMK A01 T02190134  RH  059%=      5-min Rain = 0
KLE1 160351Z 09005KT 22/13 A298 RMK A01 T02180133  RH  058%=      5-min Rain = 0
KLE1 160352Z 10005KT 22/13 A298 RMK A01 T02180134  RH  059%=      5-min Rain = 0
KLE1 160353Z 10005KT 22/14 A298 RMK A01 T02180136  RH  060%=      5-min Rain = 0
KLE1 160354Z 11005KT 22/14 A2981 RMK A01 T02180137  RH  060%=      5-min Rain = 0
KLE1 160355Z 13004KT 22/14 A2981 RMK A01 T02170138  RH  061%=      5-min Rain = 0
KLE1 160356Z 13005KT 22/14 A2981 RMK A01 T02160141  RH  062%=      5-min Rain = 0
KLE1 160357Z 14005KT 21/14 A2982 RMK A01 T02140141  RH  063%=      5-min Rain = 0
KLE1 160358Z 15006KT 21/14 A2982 RMK A01 T02130144  RH  065%=      5-min Rain = 0
KLE1 160359Z 15006KT 21/15 A2982 RMK A01 T02110146  RH  066%=      5-min Rain = 0
KLE1 160400Z 16007KT 21/15 A2982 RMK A01 T02100146  RH  067%=      5-min Rain = 0
KLE1 160401Z 16008KT 21/15 A2982 RMK A01 T02080147  RH  068%=      5-min Rain = 0
KLE1 160402Z 16008KT 21/15 A2982 RMK A01 T02080147  RH  068%=      5-min Rain = 0
KLE1 160403Z 16007KT 21/15 A2983 RMK A01 T02070148  RH  069%=      5-min Rain = 0
KLE1 160404Z 17006KT 21/15 A2983 RMK A01 T02070146  RH  068%=      5-min Rain = 0
KLE1 160405Z 17006KT 21/15 A2983 RMK A01 T02070146  RH  068%=      5-min Rain = 0
KLE1 160406Z 17005KT 21/15 A2983 RMK A01 T02080147  RH  068%=      5-min Rain = 0
KLE1 160407Z 17004KT 21/15 A2983 RMK A01 T02080148  RH  069%=      5-min Rain = 0
KLE1 160408Z 17003KT 21/15 A2983 RMK A01 T02080149  RH  069%=      5-min Rain = 0
KLE1 160409Z 16003KT 21/15 A2983 RMK A01 T02080149  RH  069%=      5-min Rain = 0
KLE1 160410Z 16004KT 21/15 A2983 RMK A01 T02080148  RH  068%=      5-min Rain = 0
KLE1 160411Z 15003KT 21/15 A2983 RMK A01 T02080149  RH  069%=      5-min Rain = 0
KLE1 160412Z 09001KT 21/15 A2983 RMK A01 T02080148  RH  069%=      5-min Rain = 0
KLE1 160413Z 08003KT 21/14 A2983 RMK A01 T02080141  RH  065%=      5-min Rain = 0
KLE1 160414Z 08005KT 21/14 A2983 RMK A01 T02100139  RH  064%=      5-min Rain = 0
KLE1 160415Z 07007KT 21/14 A2983 RMK A01 T02120141  RH  064%=      5-min Rain = 0
KLE1 160416Z 00010G15KT 22/13 A2983 RMK A01 T02150128  RH  058%=      5-min Rain = 0
KLE1 160417Z 34008KT 23/13 A2984 RMK A01 T02260126  RH  053%=      5-min Rain = 0
KLE1 160418Z 31009KT 23/15 A2984 RMK A01 T02270145  RH  060%=      5-min Rain = 0
KLE1 160419Z 32012G20KT 22/14 A2984 RMK A01 T02210143  RH  061%=      5-min Rain = 0
KLE1 160420Z 35010G15KT 22/13 A2983 RMK A01 T02200131  RH  057%=      5-min Rain = 0
KLE1 160421Z 34012KT 22/14 A2983 RMK A01 T02230136  RH  058%=      5-min Rain = 0
KLE1 160422Z 34012KT 22/13 A2983 RMK A01 T02240129  RH  055%=      5-min Rain = 0
KLE1 160423Z 33013G18KT 23/13 A2983 RMK A01 T02270132  RH  055%=      5-min Rain = 0
KLE1 160424Z 33017KT 23/13 A2983 RMK A01 T02270131  RH  055%=      5-min Rain = 0
KLE1 160425Z 32017G23KT 23/13 A2983 RMK A01 T02300130  RH  053%=      5-min Rain = 0
KLE1 160426Z 31019KT 23/13 A2982 RMK A01 T02320128  RH  052%=      5-min Rain = 0
KLE1 160427Z 31015G20KT 23/13 A2982 RMK A01 T02340131  RH  052%=      5-min Rain = 0
KLE1 160428Z 31016KT 23/13 A2982 RMK A01 T02330131  RH  053%=      5-min Rain = 0
KLE1 160429Z 30019G26KT 23/13 A2982 RMK A01 T02320130  RH  053%=      5-min Rain = 0
KLE1 160430Z 30020KT 23/13 A2982 RMK A01 T02330128  RH  052%=      5-min Rain = 0
KLE1 160431Z 30018KT 23/13 A2983 RMK A01 T02340129  RH  052%=      5-min Rain = 0
KLE1 160432Z 29020KT 23/13 A2983 RMK A01 T02330130  RH  052%=      5-min Rain = 0
KLE1 160433Z 30019KT 23/13 A2983 RMK A01 T02330129  RH  052%=      5-min Rain = 0
KLE1 160434Z 30018KT 23/13 A2983 RMK A01 T02320131  RH  053%=      5-min Rain = 0
KLE1 160435Z 29017KT 23/13 A2983 RMK A01 T02310132  RH  054%=      5-min Rain = 0
KLE1 160436Z 29016KT 23/13 A2984 RMK A01 T02280134  RH  055%=      5-min Rain = 0
KLE1 160437Z 29019KT 23/13 A2984 RMK A01 T02260133  RH  056%=      5-min Rain = 0
KLE1 160438Z 29016KT 23/14 A2984 RMK A01 T02260135  RH  056%=      5-min Rain = 0
KLE1 160439Z 29017KT 22/14 A2984 RMK A01 T02240136  RH  058%=      5-min Rain = 0
KLE1 160440Z 29015KT 22/14 A2984 RMK A01 T02230136  RH  058%=      5-min Rain = 0
KLE1 160441Z 30016KT 22/14 A2984 RMK A01 T02230136  RH  058%=      5-min Rain = 0
KLE1 160442Z 30017KT 22/14 A2984 RMK A01 T02220136  RH  058%=      5-min Rain = 0
KLE1 160443Z 30018KT 22/13 A2984 RMK A01 T02220134  RH  057%=      5-min Rain = 0
KLE1 160444Z 31018KT 22/13 A2984 RMK A01 T02230133  RH  057%=      5-min Rain = 0
KLE1 160445Z 30018KT 22/13 A2984 RMK A01 T02230132  RH  056%=      5-min Rain = 0
KLE1 160446Z 30018KT 22/13 A2984 RMK A01 T02240132  RH  056%=      5-min Rain = 0
KLE1 160447Z 30018KT 23/13 A2984 RMK A01 T02250133  RH  056%=      5-min Rain = 0
KLE1 160448Z 31018KT 22/13 A2984 RMK A01 T02240133  RH  056%=      5-min Rain = 0
KLE1 160449Z 31016KT 22/13 A2984 RMK A01 T02240132  RH  056%=      5-min Rain = 0
KLE1 160450Z 31016KT 22/13 A2984 RMK A01 T02230133  RH  057%=      5-min Rain = 0
KLE1 160451Z 31015KT 22/13 A2984 RMK A01 T02230132  RH  056%=      5-min Rain = 0
KLE1 160452Z 31015KT 22/13 A2984 RMK A01 T02220132  RH  056%=      5-min Rain = 0
KLE1 160453Z 31014KT 22/13 A2984 RMK A01 T02220131  RH  056%=      5-min Rain = 0
KLE1 160454Z 31013KT 22/13 A2985 RMK A01 T02220132  RH  057%=      5-min Rain = 0
KLE1 160455Z 31011KT 22/13 A2985 RMK A01 T02210133  RH  057%=      5-min Rain = 0
KLE1 160456Z 31013KT 22/13 A2985 RMK A01 T02200133  RH  058%=      5-min Rain = 0
KLE1 160457Z 31013KT 22/13 A2985 RMK A01 T02190131  RH  057%=      5-min Rain = 0
KLE1 160458Z 31012G17KT 22/13 A2985 RMK A01 T02200129  RH  056%=      5-min Rain = 0
KLE1 160459Z 31011KT 22/13 A2986 RMK A01 T02200131  RH  057%=      5-min Rain = 0

Page generated in 0.1418 seconds.